Observation data for Romero 11SSW on 02/24/2021      Previous  Date  Next       Current Mesonet Observations  Soil Data  Daily Summary Page  Observations in Plain Language
KBR1 240600Z 01023KT 09/M04 A2992 RMK A01 T00871042  RH  040%=      5-min Rain = 0
KBR1 240601Z 01021G26KT 09/M04 A2992 RMK A01 T00871042  RH  040%=      5-min Rain = 0
KBR1 240602Z 01022G27KT 09/M04 A2993 RMK A01 T00871042  RH  040%=      5-min Rain = 0
KBR1 240603Z 01021KT 09/M04 A2993 RMK A01 T00871041  RH  040%=      5-min Rain = 0
KBR1 240604Z 02020KT 09/M04 A2993 RMK A01 T00871041  RH  040%=      5-min Rain = 0
KBR1 240605Z 01022KT 09/M04 A2993 RMK A01 T00861041  RH  040%=      5-min Rain = 0
KBR1 240606Z 02021KT 09/M04 A2993 RMK A01 T00861041  RH  041%=      5-min Rain = 0
KBR1 240607Z 01019G24KT 09/M04 A2993 RMK A01 T00861041  RH  041%=      5-min Rain = 0
KBR1 240608Z 01022G27KT 09/M04 A2993 RMK A01 T00851041  RH  041%=      5-min Rain = 0
KBR1 240609Z 01023KT 09/M04 A2993 RMK A01 T00861040  RH  041%=      5-min Rain = 0
KBR1 240610Z 02021KT 09/M04 A2993 RMK A01 T00861040  RH  041%=      5-min Rain = 0
KBR1 240611Z 02021KT 09/M04 A2994 RMK A01 T00851040  RH  041%=      5-min Rain = 0
KBR1 240612Z 01021G26KT 09/M04 A2994 RMK A01 T00851040  RH  041%=      5-min Rain = 0
KBR1 240613Z 00021KT 09/M04 A2994 RMK A01 T00851040  RH  041%=      5-min Rain = 0
KBR1 240614Z 00019G24KT 09/M04 A2994 RMK A01 T00851040  RH  041%=      5-min Rain = 0
KBR1 240615Z 01023G28KT 09/M04 A2994 RMK A01 T00851040  RH  041%=      5-min Rain = 0
KBR1 240616Z 01022KT 09/M04 A2995 RMK A01 T00861040  RH  041%=      5-min Rain = 0
KBR1 240617Z 01018KT 09/M04 A2995 RMK A01 T00861040  RH  041%=      5-min Rain = 0
KBR1 240618Z 01017KT 09/M04 A2995 RMK A01 T00851040  RH  041%=      5-min Rain = 0
KBR1 240619Z 01016KT 08/M04 A2995 RMK A01 T00831040  RH  042%=      5-min Rain = 0
KBR1 240620Z 01017KT 08/M04 A2995 RMK A01 T00821040  RH  042%=      5-min Rain = 0
KBR1 240621Z 01016KT 08/M04 A2995 RMK A01 T00811040  RH  042%=      5-min Rain = 0
KBR1 240622Z 01016KT 08/M04 A2996 RMK A01 T00811040  RH  042%=      5-min Rain = 0
KBR1 240623Z 02018G23KT 08/M04 A2996 RMK A01 T00801039  RH  043%=      5-min Rain = 0
KBR1 240624Z 02021G26KT 08/M04 A2996 RMK A01 T00811039  RH  043%=      5-min Rain = 0
KBR1 240625Z 01019G24KT 08/M04 A2996 RMK A01 T00811039  RH  042%=      5-min Rain = 0
KBR1 240626Z 02018KT 08/M04 A2996 RMK A01 T00811039  RH  042%=      5-min Rain = 0
KBR1 240627Z 01017KT 08/M04 A2996 RMK A01 T00811039  RH  042%=      5-min Rain = 0
KBR1 240628Z 01017KT 08/M04 A2996 RMK A01 T00801039  RH  043%=      5-min Rain = 0
KBR1 240629Z 01017KT 08/M04 A2996 RMK A01 T00801039  RH  043%=      5-min Rain = 0
KBR1 240630Z 01017KT 08/M04 A2997 RMK A01 T00791039  RH  043%=      5-min Rain = 0
KBR1 240631Z 01017KT 08/M04 A2997 RMK A01 T00781039  RH  043%=      5-min Rain = 0
KBR1 240632Z 01016G21KT 08/M04 A2997 RMK A01 T00781038  RH  043%=      5-min Rain = 0
KBR1 240633Z 02016KT 08/M04 A2997 RMK A01 T00781038  RH  044%=      5-min Rain = 0
KBR1 240634Z 02016KT 08/M04 A2997 RMK A01 T00771038  RH  044%=      5-min Rain = 0
KBR1 240635Z 02016KT 08/M04 A2997 RMK A01 T00761038  RH  044%=      5-min Rain = 0
KBR1 240636Z 02016G21KT 08/M04 A2997 RMK A01 T00751038  RH  044%=      5-min Rain = 0
KBR1 240637Z 02019KT 08/M04 A2997 RMK A01 T00751038  RH  045%=      5-min Rain = 0
KBR1 240638Z 02017KT 08/M04 A2997 RMK A01 T00751038  RH  045%=      5-min Rain = 0
KBR1 240639Z 02014KT 08/M04 A2997 RMK A01 T00751038  RH  045%=      5-min Rain = 0
KBR1 240640Z 02016KT 07/M04 A2997 RMK A01 T00731038  RH  045%=      5-min Rain = 0
KBR1 240641Z 02017KT 07/M04 A2997 RMK A01 T00721038  RH  045%=      5-min Rain = 0
KBR1 240642Z 02017KT 07/M04 A2997 RMK A01 T00731037  RH  045%=      5-min Rain = 0
KBR1 240643Z 01016KT 07/M04 A2997 RMK A01 T00731037  RH  045%=      5-min Rain = 0
KBR1 240644Z 02016KT 07/M04 A2998 RMK A01 T00721037  RH  046%=      5-min Rain = 0
KBR1 240645Z 02018KT 07/M04 A2998 RMK A01 T00721037  RH  046%=      5-min Rain = 0
KBR1 240646Z 02017KT 07/M04 A2998 RMK A01 T00721037  RH  046%=      5-min Rain = 0
KBR1 240647Z 02021KT 07/M04 A2998 RMK A01 T00721037  RH  046%=      5-min Rain = 0
KBR1 240648Z 02018KT 07/M04 A2998 RMK A01 T00721037  RH  046%=      5-min Rain = 0
KBR1 240649Z 02016KT 07/M04 A2998 RMK A01 T00721036  RH  046%=      5-min Rain = 0
KBR1 240650Z 02017G22KT 07/M04 A2998 RMK A01 T00711037  RH  046%=      5-min Rain = 0
KBR1 240651Z 01018G24KT 07/M04 A2998 RMK A01 T00701036  RH  047%=      5-min Rain = 0
KBR1 240652Z 02020KT 07/M04 A2998 RMK A01 T00711036  RH  047%=      5-min Rain = 0
KBR1 240653Z 02020G25KT 07/M04 A2998 RMK A01 T00711036  RH  046%=      5-min Rain = 0
KBR1 240654Z 02019G24KT 07/M04 A2998 RMK A01 T00711036  RH  046%=      5-min Rain = 0
KBR1 240655Z 02018G24KT 07/M04 A2998 RMK A01 T00711036  RH  047%=      5-min Rain = 0
KBR1 240656Z 02020KT 07/M04 A2998 RMK A01 T00701036  RH  047%=      5-min Rain = 0
KBR1 240657Z 02019G24KT 07/M04 A2998 RMK A01 T00701036  RH  047%=      5-min Rain = 0
KBR1 240658Z 02018KT 07/M04 A2998 RMK A01 T00701035  RH  047%=      5-min Rain = 0
KBR1 240659Z 02018KT 07/M04 A2998 RMK A01 T00691035  RH  047%=      5-min Rain = 0
KBR1 240700Z 02021G27KT 07/M04 A2998 RMK A01 T00681035  RH  048%=      5-min Rain = 0
KBR1 240701Z 02017KT 07/M04 A2999 RMK A01 T00691035  RH  048%=      5-min Rain = 0
KBR1 240702Z 02017KT 07/M04 A2999 RMK A01 T00681036  RH  048%=      5-min Rain = 0
KBR1 240703Z 02018KT 07/M04 A2999 RMK A01 T00671035  RH  048%=      5-min Rain = 0
KBR1 240704Z 02018G24KT 07/M04 A2999 RMK A01 T00671035  RH  048%=      5-min Rain = 0
KBR1 240705Z 02019KT 07/M04 A2999 RMK A01 T00671035  RH  048%=      5-min Rain = 0
KBR1 240706Z 02018G24KT 07/M04 A2999 RMK A01 T00671035  RH  048%=      5-min Rain = 0
KBR1 240707Z 02020G26KT 07/M04 A2999 RMK A01 T00671035  RH  048%=      5-min Rain = 0
KBR1 240708Z 02019KT 07/M03 A2999 RMK A01 T00671034  RH  049%=      5-min Rain = 0
KBR1 240709Z 02020KT 07/M03 A30 RMK A01 T00671034  RH  049%=      5-min Rain = 0
KBR1 240710Z 02019KT 07/M03 A30 RMK A01 T00671033  RH  049%=      5-min Rain = 0
KBR1 240711Z 02017KT 07/M03 A30 RMK A01 T00661033  RH  049%=      5-min Rain = 0
KBR1 240712Z 02018G24KT 07/M03 A30 RMK A01 T00661033  RH  049%=      5-min Rain = 0
KBR1 240713Z 02016KT 07/M03 A30 RMK A01 T00661033  RH  049%=      5-min Rain = 0
KBR1 240714Z 02017KT 07/M03 A30 RMK A01 T00651033  RH  050%=      5-min Rain = 0
KBR1 240715Z 02017KT 07/M03 A30 RMK A01 T00651033  RH  050%=      5-min Rain = 0
KBR1 240716Z 02019KT 06/M03 A30 RMK A01 T00641033  RH  050%=      5-min Rain = 0
KBR1 240717Z 02018KT 07/M03 A30 RMK A01 T00651033  RH  050%=      5-min Rain = 0
KBR1 240718Z 02018KT 07/M03 A30 RMK A01 T00661032  RH  050%=      5-min Rain = 0
KBR1 240719Z 02018KT 07/M03 A3001 RMK A01 T00651033  RH  050%=      5-min Rain = 0
KBR1 240720Z 02017KT 07/M03 A3001 RMK A01 T00651032  RH  050%=      5-min Rain = 0
KBR1 240721Z 02015G20KT 06/M03 A3001 RMK A01 T00641033  RH  050%=      5-min Rain = 0
KBR1 240722Z 02015G20KT 06/M03 A3001 RMK A01 T00641032  RH  050%=      5-min Rain = 0
KBR1 240723Z 02017KT 06/M03 A3001 RMK A01 T00621033  RH  051%=      5-min Rain = 0
KBR1 240724Z 02016KT 06/M03 A3001 RMK A01 T00621032  RH  051%=      5-min Rain = 0
KBR1 240725Z 02016KT 06/M03 A3001 RMK A01 T00621032  RH  051%=      5-min Rain = 0
KBR1 240726Z 02015KT 06/M03 A3001 RMK A01 T00611032  RH  051%=      5-min Rain = 0
KBR1 240727Z 02016KT 06/M03 A3001 RMK A01 T00611032  RH  051%=      5-min Rain = 0
KBR1 240728Z 02016KT 06/M03 A3001 RMK A01 T00611032  RH  051%=      5-min Rain = 0
KBR1 240729Z 02016KT 06/M03 A3001 RMK A01 T00601032  RH  052%=      5-min Rain = 0
KBR1 240730Z 01017KT 06/M03 A3001 RMK A01 T00601032  RH  052%=      5-min Rain = 0
KBR1 240731Z 01016KT 06/M03 A3001 RMK A01 T00591032  RH  052%=      5-min Rain = 0
KBR1 240732Z 01019KT 06/M03 A3001 RMK A01 T00591032  RH  052%=      5-min Rain = 0
KBR1 240733Z 01018KT 06/M03 A3001 RMK A01 T00591032  RH  052%=      5-min Rain = 0
KBR1 240734Z 01020KT 06/M03 A30 RMK A01 T00591032  RH  052%=      5-min Rain = 0
KBR1 240735Z 01022G27KT 06/M03 A30 RMK A01 T00601032  RH  052%=      5-min Rain = 0
KBR1 240736Z 01021KT 06/M03 A3001 RMK A01 T00601033  RH  051%=      5-min Rain = 0
KBR1 240737Z 02021G28KT 06/M03 A3001 RMK A01 T00601034  RH  051%=      5-min Rain = 0
KBR1 240738Z 02027KT 06/M04 A30 RMK A01 T00601037  RH  050%=      5-min Rain = 0
KBR1 240739Z 01023KT 06/M04 A3001 RMK A01 T00601039  RH  049%=      5-min Rain = 0
KBR1 240740Z 02022G27KT 06/M04 A3001 RMK A01 T00601039  RH  049%=      5-min Rain = 0
KBR1 240741Z 02023KT 06/M04 A3001 RMK A01 T00601039  RH  049%=      5-min Rain = 0
KBR1 240742Z 02022KT 06/M04 A3001 RMK A01 T00591040  RH  049%=      5-min Rain = 0
KBR1 240743Z 02021KT 06/M04 A3001 RMK A01 T00591041  RH  049%=      5-min Rain = 0
KBR1 240744Z 02024G29KT 06/M04 A3001 RMK A01 T00581041  RH  049%=      5-min Rain = 0
KBR1 240745Z 02020KT 06/M04 A3001 RMK A01 T00581041  RH  049%=      5-min Rain = 0
KBR1 240746Z 02024G30KT 06/M04 A3001 RMK A01 T00571041  RH  049%=      5-min Rain = 0
KBR1 240747Z 02025G30KT 06/M04 A3001 RMK A01 T00571042  RH  049%=      5-min Rain = 0
KBR1 240748Z 02025KT 06/M04 A3001 RMK A01 T00581042  RH  049%=      5-min Rain = 0
KBR1 240749Z 02020KT 06/M04 A3001 RMK A01 T00581042  RH  049%=      5-min Rain = 0
KBR1 240750Z 02020KT 06/M04 A3001 RMK A01 T00571042  RH  049%=      5-min Rain = 0
KBR1 240751Z 02020KT 06/M04 A3001 RMK A01 T00561042  RH  049%=      5-min Rain = 0
KBR1 240752Z 02020KT 06/M04 A3002 RMK A01 T00561042  RH  049%=      5-min Rain = 0
KBR1 240753Z 02021G26KT 06/M04 A3002 RMK A01 T00551042  RH  049%=      5-min Rain = 0
KBR1 240754Z 02020KT 06/M04 A3002 RMK A01 T00551042  RH  050%=      5-min Rain = 0
KBR1 240755Z 02019KT 06/M04 A3002 RMK A01 T00551041  RH  050%=      5-min Rain = 0
KBR1 240756Z 02021G28KT 06/M04 A3002 RMK A01 T00551041  RH  050%=      5-min Rain = 0
KBR1 240757Z 02025KT 06/M04 A3002 RMK A01 T00551042  RH  050%=      5-min Rain = 0
KBR1 240758Z 02021KT 06/M04 A3002 RMK A01 T00561042  RH  049%=      5-min Rain = 0
KBR1 240759Z 02022KT 06/M04 A3002 RMK A01 T00561042  RH  049%=      5-min Rain = 0
KBR1 240800Z 01020KT 06/M04 A3002 RMK A01 T00561043  RH  049%=      5-min Rain = 0
KBR1 240801Z 02023G30KT 06/M04 A3002 RMK A01 T00551044  RH  049%=      5-min Rain = 0
KBR1 240802Z 02026KT 06/M04 A3002 RMK A01 T00551044  RH  049%=      5-min Rain = 0
KBR1 240803Z 02027KT 06/M05 A3001 RMK A01 T00551045  RH  048%=      5-min Rain = 0
KBR1 240804Z 02025KT 06/M05 A3002 RMK A01 T00561046  RH  048%=      5-min Rain = 0
KBR1 240805Z 02024KT 06/M05 A3002 RMK A01 T00561046  RH  048%=      5-min Rain = 0
KBR1 240806Z 01025G32KT 06/M05 A3002 RMK A01 T00551046  RH  048%=      5-min Rain = 0
KBR1 240807Z 02026G31KT 06/M05 A3002 RMK A01 T00551047  RH  048%=      5-min Rain = 0
KBR1 240808Z 02024G29KT 06/M05 A3002 RMK A01 T00551047  RH  048%=      5-min Rain = 0
KBR1 240809Z 02025KT 05/M05 A3002 RMK A01 T00541048  RH  048%=      5-min Rain = 0
KBR1 240810Z 02022G29KT 05/M05 A3002 RMK A01 T00541047  RH  048%=      5-min Rain = 0
KBR1 240811Z 02023KT 05/M05 A3002 RMK A01 T00531048  RH  048%=      5-min Rain = 0
KBR1 240812Z 02021KT 05/M05 A3002 RMK A01 T00531047  RH  048%=      5-min Rain = 0
KBR1 240813Z 02021G26KT 05/M05 A3002 RMK A01 T00521047  RH  049%=      5-min Rain = 0
KBR1 240814Z 02020G26KT 05/M05 A3002 RMK A01 T00521047  RH  049%=      5-min Rain = 0
KBR1 240815Z 02021KT 05/M05 A3002 RMK A01 T00511047  RH  049%=      5-min Rain = 0
KBR1 240816Z 02021KT 05/M05 A3002 RMK A01 T00501047  RH  049%=      5-min Rain = 0
KBR1 240817Z 02021KT 05/M05 A3003 RMK A01 T00511047  RH  049%=      5-min Rain = 0
KBR1 240818Z 02018KT 05/M05 A3003 RMK A01 T00501047  RH  050%=      5-min Rain = 0
KBR1 240819Z 02018G23KT 05/M05 A3003 RMK A01 T00491046  RH  050%=      5-min Rain = 0
KBR1 240820Z 02018KT 05/M05 A3003 RMK A01 T00491046  RH  050%=      5-min Rain = 0
KBR1 240821Z 02015KT 05/M05 A3003 RMK A01 T00481046  RH  051%=      5-min Rain = 0
KBR1 240822Z 02017KT 05/M05 A3003 RMK A01 T00471046  RH  051%=      5-min Rain = 0
KBR1 240823Z 02017KT 05/M05 A3003 RMK A01 T00461046  RH  051%=      5-min Rain = 0
KBR1 240824Z 02015KT 05/M05 A3003 RMK A01 T00461045  RH  052%=      5-min Rain = 0
KBR1 240825Z 02016KT 05/M05 A3004 RMK A01 T00461045  RH  052%=      5-min Rain = 0
KBR1 240826Z 02016G21KT 05/M05 A3004 RMK A01 T00451045  RH  052%=      5-min Rain = 0
KBR1 240827Z 02017KT 05/M05 A3004 RMK A01 T00451045  RH  052%=      5-min Rain = 0
KBR1 240828Z 02015KT 04/M05 A3004 RMK A01 T00441045  RH  052%=      5-min Rain = 0
KBR1 240829Z 02016KT 04/M05 A3004 RMK A01 T00441045  RH  052%=      5-min Rain = 0
KBR1 240830Z 02018KT 04/M05 A3004 RMK A01 T00431045  RH  053%=      5-min Rain = 0
KBR1 240831Z 01017KT 04/M05 A3004 RMK A01 T00441045  RH  053%=      5-min Rain = 0
KBR1 240832Z 01020KT 04/M05 A3004 RMK A01 T00431045  RH  052%=      5-min Rain = 0
KBR1 240833Z 02017KT 04/M05 A3005 RMK A01 T00441046  RH  052%=      5-min Rain = 0
KBR1 240834Z 01018G23KT 04/M05 A3004 RMK A01 T00431046  RH  052%=      5-min Rain = 0
KBR1 240835Z 02018KT 04/M05 A3004 RMK A01 T00421047  RH  052%=      5-min Rain = 0
KBR1 240836Z 02019KT 04/M05 A3004 RMK A01 T00421048  RH  052%=      5-min Rain = 0
KBR1 240837Z 02021KT 04/M05 A3004 RMK A01 T00411049  RH  052%=      5-min Rain = 0
KBR1 240838Z 02018KT 04/M05 A3004 RMK A01 T00411050  RH  051%=      5-min Rain = 0
KBR1 240839Z 02017KT 04/M05 A3004 RMK A01 T00411050  RH  051%=      5-min Rain = 0
KBR1 240840Z 02019KT 04/M05 A3004 RMK A01 T00401050  RH  052%=      5-min Rain = 0
KBR1 240841Z 02017G22KT 04/M05 A3004 RMK A01 T00401050  RH  052%=      5-min Rain = 0
KBR1 240842Z 02020KT 04/M05 A3004 RMK A01 T00401050  RH  052%=      5-min Rain = 0
KBR1 240843Z 02021KT 04/M05 A3004 RMK A01 T00401050  RH  052%=      5-min Rain = 0
KBR1 240844Z 02021KT 04/M05 A3004 RMK A01 T00401051  RH  052%=      5-min Rain = 0
KBR1 240845Z 02017KT 04/M05 A3004 RMK A01 T00401051  RH  051%=      5-min Rain = 0
KBR1 240846Z 02019KT 04/M05 A3004 RMK A01 T00391051  RH  052%=      5-min Rain = 0
KBR1 240847Z 02017KT 04/M05 A3005 RMK A01 T00391051  RH  052%=      5-min Rain = 0
KBR1 240848Z 02017KT 04/M05 A3005 RMK A01 T00391051  RH  052%=      5-min Rain = 0
KBR1 240849Z 01017KT 04/M05 A3005 RMK A01 T00381051  RH  052%=      5-min Rain = 0
KBR1 240850Z 01016G21KT 04/M05 A3005 RMK A01 T00381051  RH  052%=      5-min Rain = 0
KBR1 240851Z 01018KT 04/M05 A3005 RMK A01 T00371051  RH  053%=      5-min Rain = 0
KBR1 240852Z 01016KT 04/M05 A3005 RMK A01 T00371051  RH  053%=      5-min Rain = 0
KBR1 240853Z 01017KT 04/M05 A3005 RMK A01 T00371051  RH  053%=      5-min Rain = 0
KBR1 240854Z 01018KT 04/M05 A3004 RMK A01 T00361051  RH  053%=      5-min Rain = 0
KBR1 240855Z 02020KT 04/M05 A3004 RMK A01 T00361051  RH  053%=      5-min Rain = 0
KBR1 240856Z 01020KT 04/M05 A3004 RMK A01 T00371051  RH  053%=      5-min Rain = 0
KBR1 240857Z 01018KT 04/M05 A3004 RMK A01 T00371052  RH  052%=      5-min Rain = 0
KBR1 240858Z 01018KT 04/M05 A3004 RMK A01 T00361052  RH  052%=      5-min Rain = 0
KBR1 240859Z 01019KT 04/M05 A3004 RMK A01 T00361052  RH  053%=      5-min Rain = 0
KBR1 240900Z 02019KT 04/M05 A3004 RMK A01 T00361052  RH  053%=      5-min Rain = 0
KBR1 240901Z 01019KT 04/M05 A3004 RMK A01 T00361052  RH  052%=      5-min Rain = 0
KBR1 240902Z 02019KT 04/M05 A3004 RMK A01 T00361052  RH  052%=      5-min Rain = 0
KBR1 240903Z 02017KT 04/M05 A3004 RMK A01 T00361052  RH  052%=      5-min Rain = 0
KBR1 240904Z 02018KT 04/M05 A3004 RMK A01 T00361052  RH  053%=      5-min Rain = 0
KBR1 240905Z 02019KT 04/M05 A3004 RMK A01 T00351053  RH  053%=      5-min Rain = 0
KBR1 240906Z 02018KT 04/M05 A3004 RMK A01 T00351053  RH  053%=      5-min Rain = 0
KBR1 240907Z 01018KT 04/M05 A3004 RMK A01 T00351053  RH  053%=      5-min Rain = 0
KBR1 240908Z 01016G21KT 04/M05 A3004 RMK A01 T00351053  RH  053%=      5-min Rain = 0
KBR1 240909Z 01015KT 03/M05 A3004 RMK A01 T00341053  RH  053%=      5-min Rain = 0
KBR1 240910Z 01016KT 03/M05 A3004 RMK A01 T00331053  RH  053%=      5-min Rain = 0
KBR1 240911Z 01016KT 03/M05 A3005 RMK A01 T00321053  RH  054%=      5-min Rain = 0
KBR1 240912Z 01016KT 03/M05 A3005 RMK A01 T00321052  RH  054%=      5-min Rain = 0
KBR1 240913Z 01016KT 03/M05 A3005 RMK A01 T00321052  RH  054%=      5-min Rain = 0
KBR1 240914Z 01015KT 03/M05 A3005 RMK A01 T00321052  RH  054%=      5-min Rain = 0
KBR1 240915Z 01016KT 03/M05 A3005 RMK A01 T00311052  RH  054%=      5-min Rain = 0
KBR1 240916Z 01012KT 03/M05 A3005 RMK A01 T00311052  RH  055%=      5-min Rain = 0
KBR1 240917Z 01015KT 03/M05 A3005 RMK A01 T00301052  RH  055%=      5-min Rain = 0
KBR1 240918Z 01015KT 03/M05 A3005 RMK A01 T00291051  RH  056%=      5-min Rain = 0
KBR1 240919Z 01015KT 03/M05 A3005 RMK A01 T00291050  RH  056%=      5-min Rain = 0
KBR1 240920Z 01013KT 03/M05 A3005 RMK A01 T00291050  RH  056%=      5-min Rain = 0
KBR1 240921Z 01013KT 03/M05 A3005 RMK A01 T00291050  RH  056%=      5-min Rain = 0
KBR1 240922Z 01013KT 03/M05 A3005 RMK A01 T00281050  RH  057%=      5-min Rain = 0
KBR1 240923Z 01014KT 03/M05 A3005 RMK A01 T00271050  RH  057%=      5-min Rain = 0
KBR1 240924Z 01016KT 03/M05 A3005 RMK A01 T00271050  RH  057%=      5-min Rain = 0
KBR1 240925Z 00014KT 03/M05 A3006 RMK A01 T00271050  RH  057%=      5-min Rain = 0
KBR1 240926Z 00015KT 03/M05 A3006 RMK A01 T00271050  RH  057%=      5-min Rain = 0
KBR1 240927Z 01015KT 03/M05 A3006 RMK A01 T00271050  RH  057%=      5-min Rain = 0
KBR1 240928Z 01015KT 03/M05 A3006 RMK A01 T00271050  RH  057%=      5-min Rain = 0
KBR1 240929Z 01014KT 03/M05 A3006 RMK A01 T00271050  RH  057%=      5-min Rain = 0
KBR1 240930Z 00015KT 03/M05 A3006 RMK A01 T00271050  RH  057%=      5-min Rain = 0
KBR1 240931Z 01015KT 03/M05 A3006 RMK A01 T00271051  RH  057%=      5-min Rain = 0
KBR1 240932Z 01017KT 03/M05 A3006 RMK A01 T00261051  RH  057%=      5-min Rain = 0
KBR1 240933Z 01016KT 03/M05 A3006 RMK A01 T00261051  RH  057%=      5-min Rain = 0
KBR1 240934Z 01014G19KT 03/M05 A3006 RMK A01 T00261052  RH  056%=      5-min Rain = 0
KBR1 240935Z 01014G19KT 03/M05 A3006 RMK A01 T00261052  RH  056%=      5-min Rain = 0
KBR1 240936Z 01015KT 03/M05 A3006 RMK A01 T00261052  RH  056%=      5-min Rain = 0
KBR1 240937Z 01014KT 03/M05 A3007 RMK A01 T00261052  RH  056%=      5-min Rain = 0
KBR1 240938Z 01015KT 03/M05 A3007 RMK A01 T00261052  RH  056%=      5-min Rain = 0
KBR1 240939Z 01015KT 03/M05 A3007 RMK A01 T00251053  RH  057%=      5-min Rain = 0
KBR1 240940Z 01016KT 03/M05 A3007 RMK A01 T00251053  RH  056%=      5-min Rain = 0
KBR1 240941Z 01016KT 03/M05 A3007 RMK A01 T00251053  RH  056%=      5-min Rain = 0
KBR1 240942Z 01015KT 03/M05 A3007 RMK A01 T00251054  RH  056%=      5-min Rain = 0
KBR1 240943Z 01015KT 03/M05 A3007 RMK A01 T00251054  RH  056%=      5-min Rain = 0
KBR1 240944Z 01015KT 03/M05 A3007 RMK A01 T00251054  RH  056%=      5-min Rain = 0
KBR1 240945Z 01014KT 02/M05 A3007 RMK A01 T00241054  RH  056%=      5-min Rain = 0
KBR1 240946Z 00016KT 02/M05 A3007 RMK A01 T00241054  RH  056%=      5-min Rain = 0
KBR1 240947Z 01013KT 02/M05 A3007 RMK A01 T00231054  RH  056%=      5-min Rain = 0
KBR1 240948Z 01015KT 02/M06 A3007 RMK A01 T00231055  RH  057%=      5-min Rain = 0
KBR1 240949Z 01015KT 02/M06 A3007 RMK A01 T00221055  RH  057%=      5-min Rain = 0
KBR1 240950Z 01013KT 02/M06 A3007 RMK A01 T00221055  RH  057%=      5-min Rain = 0
KBR1 240951Z 01015KT 02/M06 A3007 RMK A01 T00221055  RH  057%=      5-min Rain = 0
KBR1 240952Z 01015KT 02/M06 A3007 RMK A01 T00221055  RH  057%=      5-min Rain = 0
KBR1 240953Z 01017KT 02/M06 A3007 RMK A01 T00221055  RH  056%=      5-min Rain = 0
KBR1 240954Z 01015KT 02/M06 A3007 RMK A01 T00231056  RH  056%=      5-min Rain = 0
KBR1 240955Z 01015KT 02/M06 A3007 RMK A01 T00231056  RH  056%=      5-min Rain = 0
KBR1 240956Z 01014KT 02/M06 A3007 RMK A01 T00231056  RH  056%=      5-min Rain = 0
KBR1 240957Z 01017KT 02/M06 A3007 RMK A01 T00221056  RH  056%=      5-min Rain = 0
KBR1 240958Z 01016KT 02/M06 A3007 RMK A01 T00221056  RH  056%=      5-min Rain = 0
KBR1 240959Z 01015KT 02/M06 A3007 RMK A01 T00221057  RH  056%=      5-min Rain = 0
KBR1 241000Z 01013KT 02/M06 A3007 RMK A01 T00221057  RH  056%=      5-min Rain = 0
KBR1 241001Z 01014KT 02/M06 A3007 RMK A01 T00211057  RH  056%=      5-min Rain = 0
KBR1 241002Z 01015KT 02/M06 A3007 RMK A01 T00211057  RH  056%=      5-min Rain = 0
KBR1 241003Z 01015G20KT 02/M06 A3007 RMK A01 T00221057  RH  056%=      5-min Rain = 0
KBR1 241004Z 01014KT 02/M06 A3008 RMK A01 T00211057  RH  056%=      5-min Rain = 0
KBR1 241005Z 01014KT 02/M06 A3008 RMK A01 T00211057  RH  056%=      5-min Rain = 0
KBR1 241006Z 01014KT 02/M06 A3008 RMK A01 T00201057  RH  057%=      5-min Rain = 0
KBR1 241007Z 01015KT 02/M06 A3008 RMK A01 T00201057  RH  057%=      5-min Rain = 0
KBR1 241008Z 01015KT 02/M06 A3008 RMK A01 T00201058  RH  057%=      5-min Rain = 0
KBR1 241009Z 01014KT 02/M06 A3008 RMK A01 T00191058  RH  056%=      5-min Rain = 0
KBR1 241010Z 01015KT 02/M06 A3008 RMK A01 T00191058  RH  057%=      5-min Rain = 0
KBR1 241011Z 01015KT 02/M06 A3008 RMK A01 T00201058  RH  056%=      5-min Rain = 0
KBR1 241012Z 01015KT 02/M06 A3008 RMK A01 T00201058  RH  056%=      5-min Rain = 0
KBR1 241013Z 01016KT 02/M06 A3008 RMK A01 T00191058  RH  057%=      5-min Rain = 0
KBR1 241014Z 01016KT 02/M06 A3008 RMK A01 T00201058  RH  056%=      5-min Rain = 0
KBR1 241015Z 01015KT 02/M06 A3008 RMK A01 T00201058  RH  056%=      5-min Rain = 0
KBR1 241016Z 01015KT 02/M06 A3008 RMK A01 T00201058  RH  056%=      5-min Rain = 0
KBR1 241017Z 01015KT 02/M06 A3008 RMK A01 T00191058  RH  056%=      5-min Rain = 0
KBR1 241018Z 01016KT 02/M06 A3008 RMK A01 T00191058  RH  057%=      5-min Rain = 0
KBR1 241019Z 01016KT 02/M06 A3008 RMK A01 T00191058  RH  057%=      5-min Rain = 0
KBR1 241020Z 01016KT 02/M06 A3008 RMK A01 T00191058  RH  057%=      5-min Rain = 0
KBR1 241021Z 01014KT 02/M06 A3008 RMK A01 T00191059  RH  056%=      5-min Rain = 0
KBR1 241022Z 01015KT 02/M06 A3008 RMK A01 T00181059  RH  057%=      5-min Rain = 0
KBR1 241023Z 01015KT 02/M06 A3008 RMK A01 T00181059  RH  057%=      5-min Rain = 0
KBR1 241024Z 01015KT 02/M06 A3008 RMK A01 T00171059  RH  057%=      5-min Rain = 0
KBR1 241025Z 01015KT 02/M06 A3008 RMK A01 T00171059  RH  057%=      5-min Rain = 0
KBR1 241026Z 01015KT 02/M06 A3008 RMK A01 T00171059  RH  057%=      5-min Rain = 0
KBR1 241027Z 01015KT 02/M06 A3008 RMK A01 T00181059  RH  057%=      5-min Rain = 0
KBR1 241028Z 01014KT 02/M06 A3008 RMK A01 T00171059  RH  057%=      5-min Rain = 0
KBR1 241029Z 01015KT 02/M06 A3008 RMK A01 T00171059  RH  057%=      5-min Rain = 0
KBR1 241030Z 01016KT 02/M06 A3008 RMK A01 T00171059  RH  057%=      5-min Rain = 0
KBR1 241031Z 01014KT 02/M06 A3008 RMK A01 T00171059  RH  057%=      5-min Rain = 0
KBR1 241032Z 01014KT 02/M06 A3008 RMK A01 T00171059  RH  057%=      5-min Rain = 0
KBR1 241033Z 01014KT 02/M06 A3008 RMK A01 T00161059  RH  057%=      5-min Rain = 0
KBR1 241034Z 01012KT 02/M06 A3008 RMK A01 T00161059  RH  057%=      5-min Rain = 0
KBR1 241035Z 02013KT 02/M06 A3008 RMK A01 T00161059  RH  058%=      5-min Rain = 0
KBR1 241036Z 01012KT 02/M06 A3008 RMK A01 T00151059  RH  058%=      5-min Rain = 0
KBR1 241037Z 01013KT 02/M06 A3009 RMK A01 T00151058  RH  058%=      5-min Rain = 0
KBR1 241038Z 02014KT 02/M06 A3009 RMK A01 T00151059  RH  058%=      5-min Rain = 0
KBR1 241039Z 02012KT 02/M06 A3009 RMK A01 T00151059  RH  058%=      5-min Rain = 0
KBR1 241040Z 01012KT 02/M06 A3009 RMK A01 T00151059  RH  058%=      5-min Rain = 0
KBR1 241041Z 01011KT 01/M06 A3009 RMK A01 T00131059  RH  058%=      5-min Rain = 0
KBR1 241042Z 01013KT 01/M06 A3009 RMK A01 T00131059  RH  059%=      5-min Rain = 0
KBR1 241043Z 01013KT 01/M06 A3009 RMK A01 T00131059  RH  059%=      5-min Rain = 0
KBR1 241044Z 01012KT 01/M06 A3009 RMK A01 T00131058  RH  059%=      5-min Rain = 0
KBR1 241045Z 01012KT 01/M06 A3009 RMK A01 T00131058  RH  059%=      5-min Rain = 0
KBR1 241046Z 01013KT 01/M06 A3009 RMK A01 T00121058  RH  059%=      5-min Rain = 0
KBR1 241047Z 01013KT 01/M06 A3009 RMK A01 T00131058  RH  059%=      5-min Rain = 0
KBR1 241048Z 01013KT 01/M06 A3009 RMK A01 T00131058  RH  059%=      5-min Rain = 0
KBR1 241049Z 01013KT 01/M06 A3009 RMK A01 T00131058  RH  059%=      5-min Rain = 0
KBR1 241050Z 01011KT 01/M06 A301 RMK A01 T00141058  RH  059%=      5-min Rain = 0
KBR1 241051Z 02013KT 01/M06 A301 RMK A01 T00131059  RH  059%=      5-min Rain = 0
KBR1 241052Z 02011KT 01/M06 A301 RMK A01 T00131058  RH  059%=      5-min Rain = 0
KBR1 241053Z 01010KT 01/M06 A301 RMK A01 T00121059  RH  059%=      5-min Rain = 0
KBR1 241054Z 01009KT 01/M06 A301 RMK A01 T00111059  RH  060%=      5-min Rain = 0
KBR1 241055Z 01010KT 01/M06 A301 RMK A01 T00101059  RH  060%=      5-min Rain = 0
KBR1 241056Z 01010KT 01/M06 A301 RMK A01 T00091059  RH  060%=      5-min Rain = 0
KBR1 241057Z 01010KT 01/M06 A301 RMK A01 T00091059  RH  060%=      5-min Rain = 0
KBR1 241058Z 01009KT 01/M06 A301 RMK A01 T00091059  RH  060%=      5-min Rain = 0
KBR1 241059Z 01012KT 01/M06 A301 RMK A01 T00081059  RH  061%=      5-min Rain = 0
KBR1 241100Z 01010KT 01/M06 A301 RMK A01 T00081059  RH  061%=      5-min Rain = 0
KBR1 241101Z 01010KT 01/M06 A301 RMK A01 T00091059  RH  061%=      5-min Rain = 0
KBR1 241102Z 01010KT 01/M06 A301 RMK A01 T00091060  RH  060%=      5-min Rain = 0
KBR1 241103Z 01011KT 01/M06 A301 RMK A01 T00081060  RH  060%=      5-min Rain = 0
KBR1 241104Z 01011KT 01/M06 A301 RMK A01 T00091061  RH  060%=      5-min Rain = 0
KBR1 241105Z 01010KT 01/M06 A3011 RMK A01 T00091061  RH  060%=      5-min Rain = 0
KBR1 241106Z 01009KT 01/M06 A3011 RMK A01 T00091061  RH  059%=      5-min Rain = 0
KBR1 241107Z 01009KT 01/M06 A3011 RMK A01 T00081061  RH  060%=      5-min Rain = 0
KBR1 241108Z 01011KT 01/M06 A3011 RMK A01 T00081062  RH  060%=      5-min Rain = 0
KBR1 241109Z 01010KT 01/M06 A3011 RMK A01 T00081062  RH  059%=      5-min Rain = 0
KBR1 241110Z 01010KT 01/M06 A3011 RMK A01 T00081062  RH  059%=      5-min Rain = 0
KBR1 241111Z 01009KT 01/M06 A3011 RMK A01 T00081062  RH  059%=      5-min Rain = 0
KBR1 241112Z 01010KT 01/M06 A3011 RMK A01 T00081063  RH  059%=      5-min Rain = 0
KBR1 241113Z 02009KT 01/M06 A3011 RMK A01 T00081063  RH  059%=      5-min Rain = 0
KBR1 241114Z 01009KT 01/M06 A3011 RMK A01 T00071063  RH  059%=      5-min Rain = 0
KBR1 241115Z 02009KT 01/M06 A3011 RMK A01 T00071063  RH  059%=      5-min Rain = 0
KBR1 241116Z 02009KT 01/M06 A3011 RMK A01 T00071063  RH  059%=      5-min Rain = 0
KBR1 241117Z 02009KT 01/M06 A3011 RMK A01 T00071063  RH  059%=      5-min Rain = 0
KBR1 241118Z 02008KT 01/M06 A3012 RMK A01 T00071063  RH  059%=      5-min Rain = 0
KBR1 241119Z 02009KT 01/M06 A3012 RMK A01 T00061063  RH  060%=      5-min Rain = 0
KBR1 241120Z 02007KT 01/M06 A3012 RMK A01 T00061064  RH  060%=      5-min Rain = 0
KBR1 241121Z 02007KT 01/M06 A3012 RMK A01 T00051064  RH  060%=      5-min Rain = 0
KBR1 241122Z 02007KT 01/M06 A3012 RMK A01 T00051063  RH  060%=      5-min Rain = 0
KBR1 241123Z 02007KT 00/M06 A3012 RMK A01 T00041064  RH  060%=      5-min Rain = 0
KBR1 241124Z 02006KT 00/M06 A3012 RMK A01 T00031064  RH  061%=      5-min Rain = 0
KBR1 241125Z 02006KT 00/M06 A3012 RMK A01 T00031064  RH  061%=      5-min Rain = 0
KBR1 241126Z 02006KT 00/M06 A3012 RMK A01 T00031064  RH  061%=      5-min Rain = 0
KBR1 241127Z 01007KT 00/M06 A3012 RMK A01 T00021064  RH  061%=      5-min Rain = 0
KBR1 241128Z 01006KT 00/M06 A3012 RMK A01 T00011064  RH  061%=      5-min Rain = 0
KBR1 241129Z 02007KT 00/M06 A3012 RMK A01 T00021064  RH  061%=      5-min Rain = 0
KBR1 241130Z 02006KT 00/M06 A3012 RMK A01 T00011064  RH  061%=      5-min Rain = 0
KBR1 241131Z 01006KT 00/M06 A3012 RMK A01 T00011064  RH  061%=      5-min Rain = 0
KBR1 241132Z 01007KT 00/M06 A3012 RMK A01 T00011064  RH  062%=      5-min Rain = 0
KBR1 241133Z 01006KT 00/M06 A3012 RMK A01 T00011064  RH  062%=      5-min Rain = 0
KBR1 241134Z 01006KT 00/M07 A3013 RMK A01 T00011065  RH  061%=      5-min Rain = 0
KBR1 241135Z 01007KT 00/M06 A3013 RMK A01 T00011064  RH  061%=      5-min Rain = 0
KBR1 241136Z 01007KT 00/M06 A3013 RMK A01 T00011064  RH  061%=      5-min Rain = 0
KBR1 241137Z 01008KT 00/M06 A3013 RMK A01 T00011064  RH  061%=      5-min Rain = 0
KBR1 241138Z 01007KT 00/M06 A3013 RMK A01 T00021064  RH  061%=      5-min Rain = 0
KBR1 241139Z 00007KT 00/M06 A3013 RMK A01 T00021064  RH  061%=      5-min Rain = 0
KBR1 241140Z 00007KT 00/M06 A3013 RMK A01 T00011064  RH  061%=      5-min Rain = 0
KBR1 241141Z 36006KT 00/M06 A3013 RMK A01 T00011064  RH  062%=      5-min Rain = 0
KBR1 241142Z 36007KT 00/07 A3013 RMK A01 T00-00-65  RH  062%=      5-min Rain = 0
KBR1 241143Z 36006KT M00/M07 A3013 RMK A01 T10021065  RH  062%=      5-min Rain = 0
KBR1 241144Z 36006KT M00/M07 A3013 RMK A01 T10021065  RH  063%=      5-min Rain = 0
KBR1 241145Z 36007KT M00/M07 A3013 RMK A01 T10031065  RH  063%=      5-min Rain = 0
KBR1 241146Z 36007KT M00/M07 A3013 RMK A01 T10031065  RH  063%=      5-min Rain = 0
KBR1 241147Z 36007KT M00/M07 A3013 RMK A01 T10031065  RH  063%=      5-min Rain = 0
KBR1 241148Z 00006KT M00/M07 A3013 RMK A01 T10041065  RH  063%=      5-min Rain = 0
KBR1 241149Z 00007KT M01/M07 A3013 RMK A01 T10051065  RH  064%=      5-min Rain = 0
KBR1 241150Z 00007KT M01/M07 A3013 RMK A01 T10061066  RH  064%=      5-min Rain = 0
KBR1 241151Z 00007KT M01/M07 A3013 RMK A01 T10061065  RH  064%=      5-min Rain = 0
KBR1 241152Z 00006KT M01/M07 A3013 RMK A01 T10071065  RH  065%=      5-min Rain = 0
KBR1 241153Z 00006KT M01/M07 A3013 RMK A01 T10071065  RH  065%=      5-min Rain = 0
KBR1 241154Z 00007KT M01/M07 A3013 RMK A01 T10081065  RH  065%=      5-min Rain = 0
KBR1 241155Z 36007KT M01/M07 A3013 RMK A01 T10091066  RH  065%=      5-min Rain = 0
KBR1 241156Z 36006KT M01/M07 A3013 RMK A01 T10091066  RH  065%=      5-min Rain = 0
KBR1 241157Z 00006KT M01/M07 A3013 RMK A01 T10091066  RH  065%=      5-min Rain = 0
KBR1 241158Z 00006KT M01/M07 A3013 RMK A01 T10101066  RH  066%=      5-min Rain = 0
KBR1 241159Z 01006KT M01/M07 A3013 RMK A01 T10101066  RH  066%=      5-min Rain = 0
KBR1 241200Z 01006KT M01/M07 A3013 RMK A01 T10091066  RH  066%=      5-min Rain = 0
KBR1 241201Z 01005KT M01/M07 A3013 RMK A01 T10101066  RH  066%=      5-min Rain = 0
KBR1 241202Z 01005KT M01/M07 A3014 RMK A01 T10101066  RH  065%=      5-min Rain = 0
KBR1 241203Z 01006KT M01/M07 A3014 RMK A01 T10101067  RH  065%=      5-min Rain = 0
KBR1 241204Z 01005KT M01/M07 A3014 RMK A01 T10101067  RH  066%=      5-min Rain = 0
KBR1 241205Z 01005KT M01/M07 A3014 RMK A01 T10101067  RH  066%=      5-min Rain = 0
KBR1 241206Z 00006KT M01/M07 A3014 RMK A01 T10111067  RH  066%=      5-min Rain = 0
KBR1 241207Z 00006KT M01/M07 A3014 RMK A01 T10101067  RH  066%=      5-min Rain = 0
KBR1 241208Z 36006KT M01/M07 A3014 RMK A01 T10111067  RH  066%=      5-min Rain = 0
KBR1 241209Z 36006KT M01/M07 A3014 RMK A01 T10101067  RH  065%=      5-min Rain = 0
KBR1 241210Z 36006KT M01/M07 A3014 RMK A01 T10101067  RH  065%=      5-min Rain = 0
KBR1 241211Z 36006KT M01/M07 A3014 RMK A01 T10101067  RH  065%=      5-min Rain = 0
KBR1 241212Z 00006KT M01/M07 A3014 RMK A01 T10121068  RH  066%=      5-min Rain = 0
KBR1 241213Z 36007KT M01/M07 A3014 RMK A01 T10121068  RH  066%=      5-min Rain = 0
KBR1 241214Z 00007KT M01/M07 A3014 RMK A01 T10121067  RH  066%=      5-min Rain = 0
KBR1 241215Z 00007KT M01/M07 A3014 RMK A01 T10121068  RH  066%=      5-min Rain = 0
KBR1 241216Z 01007KT M01/M07 A3014 RMK A01 T10121068  RH  066%=      5-min Rain = 0
KBR1 241217Z 01007KT M01/M07 A3014 RMK A01 T10131068  RH  066%=      5-min Rain = 0
KBR1 241218Z 01007KT M01/M07 A3014 RMK A01 T10141068  RH  066%=      5-min Rain = 0
KBR1 241219Z 00008KT M01/M07 A3014 RMK A01 T10141068  RH  067%=      5-min Rain = 0
KBR1 241220Z 01008KT M01/M07 A3014 RMK A01 T10131068  RH  067%=      5-min Rain = 0
KBR1 241221Z 01008KT M01/M07 A3014 RMK A01 T10131068  RH  066%=      5-min Rain = 0
KBR1 241222Z 01008KT M01/M07 A3014 RMK A01 T10121068  RH  066%=      5-min Rain = 0
KBR1 241223Z 01008KT M01/M07 A3014 RMK A01 T10111068  RH  066%=      5-min Rain = 0
KBR1 241224Z 01008KT M01/M07 A3015 RMK A01 T10111068  RH  065%=      5-min Rain = 0
KBR1 241225Z 01008KT M01/M07 A3015 RMK A01 T10111068  RH  065%=      5-min Rain = 0
KBR1 241226Z 01008KT M01/M07 A3015 RMK A01 T10101068  RH  065%=      5-min Rain = 0
KBR1 241227Z 01008KT M01/M07 A3015 RMK A01 T10101068  RH  065%=      5-min Rain = 0
KBR1 241228Z 01008KT M01/M07 A3015 RMK A01 T10101068  RH  065%=      5-min Rain = 0
KBR1 241229Z 01008KT M01/M07 A3015 RMK A01 T10101068  RH  064%=      5-min Rain = 0
KBR1 241230Z 01008KT M01/M07 A3015 RMK A01 T10091068  RH  064%=      5-min Rain = 0
KBR1 241231Z 01008KT M01/M07 A3015 RMK A01 T10091069  RH  064%=      5-min Rain = 0
KBR1 241232Z 01008KT M01/M07 A3015 RMK A01 T10101069  RH  064%=      5-min Rain = 0
KBR1 241233Z 01008KT M01/M07 A3015 RMK A01 T10091069  RH  064%=      5-min Rain = 0
KBR1 241234Z 01008KT M01/M07 A3015 RMK A01 T10101069  RH  064%=      5-min Rain = 0
KBR1 241235Z 01008KT M01/M07 A3015 RMK A01 T10101070  RH  064%=      5-min Rain = 0
KBR1 241236Z 01008KT M01/M07 A3015 RMK A01 T10101069  RH  064%=      5-min Rain = 0
KBR1 241237Z 01008KT M01/M07 A3015 RMK A01 T10101069  RH  064%=      5-min Rain = 0
KBR1 241238Z 01007KT M01/M07 A3015 RMK A01 T10111070  RH  064%=      5-min Rain = 0
KBR1 241239Z 01008KT M01/M07 A3015 RMK A01 T10121070  RH  064%=      5-min Rain = 0
KBR1 241240Z 01008KT M01/M07 A3015 RMK A01 T10121070  RH  065%=      5-min Rain = 0
KBR1 241241Z 01008KT M01/M07 A3015 RMK A01 T10121070  RH  065%=      5-min Rain = 0
KBR1 241242Z 01008KT M01/M07 A3016 RMK A01 T10121070  RH  065%=      5-min Rain = 0
KBR1 241243Z 01008KT M01/M07 A3016 RMK A01 T10131071  RH  065%=      5-min Rain = 0
KBR1 241244Z 01008KT M01/M07 A3016 RMK A01 T10131071  RH  065%=      5-min Rain = 0
KBR1 241245Z 01008KT M01/M07 A3016 RMK A01 T10131071  RH  065%=      5-min Rain = 0
KBR1 241246Z 01008KT M01/M07 A3016 RMK A01 T10131071  RH  065%=      5-min Rain = 0
KBR1 241247Z 01007KT M01/M07 A3016 RMK A01 T10121071  RH  064%=      5-min Rain = 0
KBR1 241248Z 01008KT M01/M07 A3016 RMK A01 T10121071  RH  064%=      5-min Rain = 0
KBR1 241249Z 01008KT M01/M07 A3016 RMK A01 T10121071  RH  064%=      5-min Rain = 0
KBR1 241250Z 01008KT M01/M07 A3016 RMK A01 T10121071  RH  064%=      5-min Rain = 0
KBR1 241251Z 01007KT M01/M07 A3016 RMK A01 T10121072  RH  064%=      5-min Rain = 0
KBR1 241252Z 01007KT M01/M07 A3016 RMK A01 T10121072  RH  064%=      5-min Rain = 0
KBR1 241253Z 00007KT M01/M07 A3016 RMK A01 T10131072  RH  064%=      5-min Rain = 0
KBR1 241254Z 01007KT M01/M07 A3017 RMK A01 T10141072  RH  064%=      5-min Rain = 0
KBR1 241255Z 00007KT M01/M07 A3017 RMK A01 T10141072  RH  065%=      5-min Rain = 0
KBR1 241256Z 00007KT M01/M07 A3017 RMK A01 T10141072  RH  065%=      5-min Rain = 0
KBR1 241257Z 01007KT M02/M07 A3017 RMK A01 T10151073  RH  065%=      5-min Rain = 0
KBR1 241258Z 01007KT M02/M07 A3017 RMK A01 T10151073  RH  065%=      5-min Rain = 0
KBR1 241259Z 01007KT M02/M07 A3017 RMK A01 T10161073  RH  065%=      5-min Rain = 0
KBR1 241300Z 01007KT M02/M07 A3017 RMK A01 T10171074  RH  065%=      5-min Rain = 0
KBR1 241301Z 00007KT M02/M07 A3017 RMK A01 T10181074  RH  066%=      5-min Rain = 0
KBR1 241302Z 00007KT M02/M07 A3017 RMK A01 T10191074  RH  066%=      5-min Rain = 0
KBR1 241303Z 01007KT M02/M07 A3017 RMK A01 T10201074  RH  067%=      5-min Rain = 0
KBR1 241304Z 01007KT M02/M07 A3017 RMK A01 T10211074  RH  067%=      5-min Rain = 0
KBR1 241305Z 01007KT M02/M08 A3017 RMK A01 T10221075  RH  067%=      5-min Rain = 0
KBR1 241306Z 01007KT M02/M07 A3017 RMK A01 T10231074  RH  068%=      5-min Rain = 0
KBR1 241307Z 01007KT M02/M08 A3017 RMK A01 T10231075  RH  068%=      5-min Rain = 0
KBR1 241308Z 01006KT M02/M08 A3017 RMK A01 T10231075  RH  068%=      5-min Rain = 0
KBR1 241309Z 01007KT M02/M08 A3017 RMK A01 T10231075  RH  068%=      5-min Rain = 0
KBR1 241310Z 01007KT M02/M08 A3017 RMK A01 T10231075  RH  068%=      5-min Rain = 0
KBR1 241311Z 01008KT M02/M08 A3017 RMK A01 T10231075  RH  068%=      5-min Rain = 0
KBR1 241312Z 01008KT M02/M08 A3017 RMK A01 T10231075  RH  068%=      5-min Rain = 0
KBR1 241313Z 01008KT M02/M07 A3017 RMK A01 T10221074  RH  067%=      5-min Rain = 0
KBR1 241314Z 01008KT M02/M07 A3017 RMK A01 T10211074  RH  067%=      5-min Rain = 0
KBR1 241315Z 01007KT M02/M07 A3017 RMK A01 T10211074  RH  067%=      5-min Rain = 0
KBR1 241316Z 01007KT M02/M07 A3017 RMK A01 T10211074  RH  067%=      5-min Rain = 0
KBR1 241317Z 01007KT M02/M07 A3018 RMK A01 T10221074  RH  067%=      5-min Rain = 0
KBR1 241318Z 01007KT M02/M07 A3018 RMK A01 T10221074  RH  067%=      5-min Rain = 0
KBR1 241319Z 01007KT M02/M07 A3018 RMK A01 T10231074  RH  068%=      5-min Rain = 0
KBR1 241320Z 01007KT M02/M08 A3018 RMK A01 T10241075  RH  068%=      5-min Rain = 0
KBR1 241321Z 01007KT M02/M08 A3018 RMK A01 T10241075  RH  068%=      5-min Rain = 0
KBR1 241322Z 01007KT M02/M08 A3018 RMK A01 T10241075  RH  068%=      5-min Rain = 0
KBR1 241323Z 00007KT M03/M08 A3018 RMK A01 T10251075  RH  068%=      5-min Rain = 0
KBR1 241324Z 00007KT M03/M08 A3018 RMK A01 T10251075  RH  069%=      5-min Rain = 0
KBR1 241325Z 00007KT M03/M08 A3018 RMK A01 T10261075  RH  069%=      5-min Rain = 0
KBR1 241326Z 36007KT M03/M08 A3019 RMK A01 T10261075  RH  069%=      5-min Rain = 0
KBR1 241327Z 00007KT M03/M08 A3019 RMK A01 T10261075  RH  069%=      5-min Rain = 0
KBR1 241328Z 36007KT M03/M08 A3019 RMK A01 T10251075  RH  069%=      5-min Rain = 0
KBR1 241329Z 36007KT M03/M08 A3019 RMK A01 T10251075  RH  068%=      5-min Rain = 0
KBR1 241330Z 36007KT M03/M08 A3019 RMK A01 T10251076  RH  068%=      5-min Rain = 0
KBR1 241331Z 35008KT M03/M08 A3019 RMK A01 T10261076  RH  068%=      5-min Rain = 0
KBR1 241332Z 36007KT M03/M08 A3019 RMK A01 T10271077  RH  069%=      5-min Rain = 0
KBR1 241333Z 36008KT M03/M08 A3019 RMK A01 T10291077  RH  069%=      5-min Rain = 0
KBR1 241334Z 36008KT M03/M08 A3019 RMK A01 T10301078  RH  070%=      5-min Rain = 0
KBR1 241335Z 00008KT M03/M08 A3019 RMK A01 T10301078  RH  070%=      5-min Rain = 0
KBR1 241336Z 00007KT M03/M08 A3019 RMK A01 T10311077  RH  070%=      5-min Rain = 0
KBR1 241337Z 35007KT M03/M08 A3019 RMK A01 T10311077  RH  070%=      5-min Rain = 0
KBR1 241338Z 35007KT M03/M08 A3019 RMK A01 T10311077  RH  071%=      5-min Rain = 0
KBR1 241339Z 35006KT M03/M08 A3019 RMK A01 T10321077  RH  071%=      5-min Rain = 0
KBR1 241340Z 35006KT M03/M08 A3019 RMK A01 T10331078  RH  071%=      5-min Rain = 0
KBR1 241341Z 35006KT M03/M08 A3019 RMK A01 T10331078  RH  071%=      5-min Rain = 0
KBR1 241342Z 35006KT M03/M08 A3019 RMK A01 T10331077  RH  071%=      5-min Rain = 0
KBR1 241343Z 35005KT M03/M08 A3019 RMK A01 T10331077  RH  071%=      5-min Rain = 0
KBR1 241344Z 35005KT M03/M08 A3019 RMK A01 T10321077  RH  071%=      5-min Rain = 0
KBR1 241345Z 35006KT M03/M08 A3019 RMK A01 T10311077  RH  071%=      5-min Rain = 0
KBR1 241346Z 35006KT M03/M08 A3019 RMK A01 T10301077  RH  070%=      5-min Rain = 0
KBR1 241347Z 34006KT M03/M08 A3019 RMK A01 T10291076  RH  070%=      5-min Rain = 0
KBR1 241348Z 35006KT M03/M08 A3019 RMK A01 T10281076  RH  069%=      5-min Rain = 0
KBR1 241349Z 35007KT M03/M08 A3019 RMK A01 T10271075  RH  069%=      5-min Rain = 0
KBR1 241350Z 35007KT M03/M08 A3019 RMK A01 T10261075  RH  069%=      5-min Rain = 0
KBR1 241351Z 35006KT M03/M08 A3019 RMK A01 T10251075  RH  069%=      5-min Rain = 0
KBR1 241352Z 35006KT M03/M08 A3019 RMK A01 T10251075  RH  069%=      5-min Rain = 0
KBR1 241353Z 35006KT M03/M07 A3019 RMK A01 T10251074  RH  069%=      5-min Rain = 0
KBR1 241354Z 35006KT M03/M07 A3019 RMK A01 T10251074  RH  069%=      5-min Rain = 0
KBR1 241355Z 35007KT M03/M07 A3019 RMK A01 T10251074  RH  069%=      5-min Rain = 0
KBR1 241356Z 35008KT M03/M07 A3019 RMK A01 T10251074  RH  069%=      5-min Rain = 0
KBR1 241357Z 35008KT M03/M07 A3019 RMK A01 T10251074  RH  069%=      5-min Rain = 0
KBR1 241358Z 36008KT M03/M07 A3019 RMK A01 T10251074  RH  069%=      5-min Rain = 0
KBR1 241359Z 35008KT M02/M07 A3019 RMK A01 T10241073  RH  069%=      5-min Rain = 0
KBR1 241400Z 35008KT M02/M07 A3019 RMK A01 T10231072  RH  069%=      5-min Rain = 0
KBR1 241401Z 35007KT M02/M07 A302 RMK A01 T10231072  RH  069%=      5-min Rain = 0
KBR1 241402Z 35007KT M02/M07 A302 RMK A01 T10221072  RH  068%=      5-min Rain = 0
KBR1 241403Z 35006KT M02/M07 A302 RMK A01 T10201072  RH  068%=      5-min Rain = 0
KBR1 241404Z 35005KT M02/M07 A302 RMK A01 T10191072  RH  067%=      5-min Rain = 0
KBR1 241405Z 35005KT M02/M07 A302 RMK A01 T10191071  RH  067%=      5-min Rain = 0
KBR1 241406Z 35005KT M02/M07 A302 RMK A01 T10181071  RH  067%=      5-min Rain = 0
KBR1 241407Z 35005KT M02/M07 A302 RMK A01 T10181071  RH  067%=      5-min Rain = 0
KBR1 241408Z 35005KT M02/M07 A302 RMK A01 T10171071  RH  067%=      5-min Rain = 0
KBR1 241409Z 35005KT M02/M07 A302 RMK A01 T10171070  RH  067%=      5-min Rain = 0
KBR1 241410Z 35005KT M02/M07 A302 RMK A01 T10161070  RH  067%=      5-min Rain = 0
KBR1 241411Z 35005KT M02/M07 A302 RMK A01 T10161070  RH  067%=      5-min Rain = 0
KBR1 241412Z 35005KT M02/M07 A302 RMK A01 T10161070  RH  067%=      5-min Rain = 0
KBR1 241413Z 35005KT M02/M07 A302 RMK A01 T10151069  RH  067%=      5-min Rain = 0
KBR1 241414Z 35005KT M02/M07 A302 RMK A01 T10151069  RH  066%=      5-min Rain = 0
KBR1 241415Z 35005KT M01/M07 A3021 RMK A01 T10131069  RH  066%=      5-min Rain = 0
KBR1 241416Z 35005KT M01/M07 A3021 RMK A01 T10131068  RH  066%=      5-min Rain = 0
KBR1 241417Z 35006KT M01/M07 A3021 RMK A01 T10121068  RH  066%=      5-min Rain = 0
KBR1 241418Z 35006KT M01/M07 A3021 RMK A01 T10101068  RH  065%=      5-min Rain = 0
KBR1 241419Z 36007KT M01/M07 A3021 RMK A01 T10081067  RH  064%=      5-min Rain = 0
KBR1 241420Z 00007KT M01/M07 A3021 RMK A01 T10071067  RH  063%=      5-min Rain = 0
KBR1 241421Z 01008KT M01/M07 A3021 RMK A01 T10051067  RH  063%=      5-min Rain = 0
KBR1 241422Z 01008KT M00/M07 A3021 RMK A01 T10011068  RH  061%=      5-min Rain = 0
KBR1 241423Z 01009KT 00/M07 A3021 RMK A01 T00011069  RH  059%=      5-min Rain = 0
KBR1 241424Z 01008KT 00/M07 A3021 RMK A01 T00031069  RH  058%=      5-min Rain = 0
KBR1 241425Z 01008KT 00/M07 A3021 RMK A01 T00041070  RH  058%=      5-min Rain = 0
KBR1 241426Z 01009KT 01/M07 A3021 RMK A01 T00051071  RH  057%=      5-min Rain = 0
KBR1 241427Z 01007KT 01/M07 A3021 RMK A01 T00061070  RH  057%=      5-min Rain = 0
KBR1 241428Z 00009KT 01/M07 A3021 RMK A01 T00071070  RH  057%=      5-min Rain = 0
KBR1 241429Z 01009KT 01/M07 A3021 RMK A01 T00071071  RH  056%=      5-min Rain = 0
KBR1 241430Z 01009KT 01/M07 A3021 RMK A01 T00081071  RH  055%=      5-min Rain = 0
KBR1 241431Z 01008KT 01/M07 A3022 RMK A01 T00091072  RH  055%=      5-min Rain = 0
KBR1 241432Z 01008KT 01/M07 A3022 RMK A01 T00101072  RH  055%=      5-min Rain = 0
KBR1 241433Z 01008KT 01/M07 A3022 RMK A01 T00101071  RH  055%=      5-min Rain = 0
KBR1 241434Z 01010KT 01/M07 A3022 RMK A01 T00111073  RH  054%=      5-min Rain = 0
KBR1 241435Z 01008KT 01/M07 A3022 RMK A01 T00121073  RH  053%=      5-min Rain = 0
KBR1 241436Z 01010KT 01/M07 A3022 RMK A01 T00131073  RH  053%=      5-min Rain = 0
KBR1 241437Z 01010KT 01/M07 A3022 RMK A01 T00141074  RH  052%=      5-min Rain = 0
KBR1 241438Z 01009KT 01/M08 A3022 RMK A01 T00141075  RH  052%=      5-min Rain = 0
KBR1 241439Z 02009KT 02/M07 A3022 RMK A01 T00151073  RH  052%=      5-min Rain = 0
KBR1 241440Z 01010KT 02/M07 A3022 RMK A01 T00151073  RH  052%=      5-min Rain = 0
KBR1 241441Z 01011KT 02/M07 A3022 RMK A01 T00161074  RH  051%=      5-min Rain = 0
KBR1 241442Z 01012KT 02/M08 A3022 RMK A01 T00171075  RH  051%=      5-min Rain = 0
KBR1 241443Z 01011KT 02/M08 A3022 RMK A01 T00181075  RH  050%=      5-min Rain = 0
KBR1 241444Z 01011KT 02/M08 A3022 RMK A01 T00181075  RH  050%=      5-min Rain = 0
KBR1 241445Z 01011KT 02/M08 A3022 RMK A01 T00191075  RH  050%=      5-min Rain = 0
KBR1 241446Z 02012KT 02/M08 A3022 RMK A01 T00201076  RH  049%=      5-min Rain = 0
KBR1 241447Z 01011KT 02/M08 A3022 RMK A01 T00201075  RH  049%=      5-min Rain = 0
KBR1 241448Z 01012KT 02/M07 A3022 RMK A01 T00211074  RH  049%=      5-min Rain = 0
KBR1 241449Z 02012KT 02/M08 A3022 RMK A01 T00221075  RH  049%=      5-min Rain = 0
KBR1 241450Z 01013KT 02/M08 A3022 RMK A01 T00221077  RH  048%=      5-min Rain = 0
KBR1 241451Z 01013KT 02/M08 A3023 RMK A01 T00221077  RH  048%=      5-min Rain = 0
KBR1 241452Z 02011KT 02/M08 A3023 RMK A01 T00231077  RH  048%=      5-min Rain = 0
KBR1 241453Z 02010KT 02/M08 A3023 RMK A01 T00231076  RH  048%=      5-min Rain = 0
KBR1 241454Z 02012KT 02/M08 A3023 RMK A01 T00241076  RH  047%=      5-min Rain = 0
KBR1 241455Z 02011KT 02/M08 A3023 RMK A01 T00241077  RH  047%=      5-min Rain = 0
KBR1 241456Z 01012KT 03/M08 A3023 RMK A01 T00251077  RH  047%=      5-min Rain = 0
KBR1 241457Z 01013KT 03/M08 A3023 RMK A01 T00251078  RH  046%=      5-min Rain = 0
KBR1 241458Z 01012KT 03/M08 A3023 RMK A01 T00251077  RH  047%=      5-min Rain = 0
KBR1 241459Z 01014KT 03/M08 A3023 RMK A01 T00251078  RH  047%=      5-min Rain = 0
KBR1 241500Z 02012KT 03/M08 A3023 RMK A01 T00251078  RH  047%=      5-min Rain = 0
KBR1 241501Z 01011KT 03/M08 A3023 RMK A01 T00261078  RH  047%=      5-min Rain = 0
KBR1 241502Z 01012KT 03/M08 A3023 RMK A01 T00261078  RH  046%=      5-min Rain = 0
KBR1 241503Z 02012KT 03/M08 A3023 RMK A01 T00261078  RH  046%=      5-min Rain = 0
KBR1 241504Z 02012KT 03/M08 A3023 RMK A01 T00261078  RH  046%=      5-min Rain = 0
KBR1 241505Z 02014KT 03/M08 A3023 RMK A01 T00271076  RH  046%=      5-min Rain = 0
KBR1 241506Z 02015KT 03/M08 A3023 RMK A01 T00281078  RH  046%=      5-min Rain = 0
KBR1 241507Z 02013KT 03/M08 A3023 RMK A01 T00281079  RH  045%=      5-min Rain = 0
KBR1 241508Z 02012KT 03/M08 A3023 RMK A01 T00281078  RH  046%=      5-min Rain = 0
KBR1 241509Z 02013KT 03/M08 A3023 RMK A01 T00281078  RH  045%=      5-min Rain = 0
KBR1 241510Z 02011KT 03/M08 A3023 RMK A01 T00281078  RH  045%=      5-min Rain = 0
KBR1 241511Z 01011KT 03/M08 A3023 RMK A01 T00301076  RH  046%=      5-min Rain = 0
KBR1 241512Z 02011KT 03/M08 A3023 RMK A01 T00311076  RH  045%=      5-min Rain = 0
KBR1 241513Z 02010KT 03/M08 A3023 RMK A01 T00311077  RH  045%=      5-min Rain = 0
KBR1 241514Z 03011KT 03/M08 A3024 RMK A01 T00311077  RH  045%=      5-min Rain = 0
KBR1 241515Z 02011KT 03/M08 A3024 RMK A01 T00321076  RH  045%=      5-min Rain = 0
KBR1 241516Z 02011KT 03/M08 A3023 RMK A01 T00331077  RH  044%=      5-min Rain = 0
KBR1 241517Z 02013KT 03/M08 A3023 RMK A01 T00331077  RH  044%=      5-min Rain = 0
KBR1 241518Z 03010KT 03/M08 A3023 RMK A01 T00331078  RH  044%=      5-min Rain = 0
KBR1 241519Z 02012KT 04/M08 A3023 RMK A01 T00351076  RH  044%=      5-min Rain = 0
KBR1 241520Z 03012KT 04/M08 A3023 RMK A01 T00351077  RH  044%=      5-min Rain = 0
KBR1 241521Z 03014KT 04/M08 A3023 RMK A01 T00351077  RH  044%=      5-min Rain = 0
KBR1 241522Z 03014KT 03/M08 A3023 RMK A01 T00341079  RH  043%=      5-min Rain = 0
KBR1 241523Z 03013KT 03/M08 A3023 RMK A01 T00341080  RH  043%=      5-min Rain = 0
KBR1 241524Z 03013KT 03/M08 A3023 RMK A01 T00331081  RH  043%=      5-min Rain = 0
KBR1 241525Z 02010KT 03/M08 A3023 RMK A01 T00331080  RH  043%=      5-min Rain = 0
KBR1 241526Z 02011KT 03/M08 A3023 RMK A01 T00331079  RH  044%=      5-min Rain = 0
KBR1 241527Z 02012KT 04/M08 A3023 RMK A01 T00351078  RH  043%=      5-min Rain = 0
KBR1 241528Z 02013KT 03/M08 A3023 RMK A01 T00341079  RH  043%=      5-min Rain = 0
KBR1 241529Z 03012KT 04/M08 A3023 RMK A01 T00361078  RH  043%=      5-min Rain = 0
KBR1 241530Z 04013KT 04/M08 A3023 RMK A01 T00361079  RH  043%=      5-min Rain = 0
KBR1 241531Z 02011KT 04/M08 A3023 RMK A01 T00371079  RH  042%=      5-min Rain = 0
KBR1 241532Z 03012KT 04/M08 A3023 RMK A01 T00371079  RH  042%=      5-min Rain = 0
KBR1 241533Z 03011KT 04/M08 A3023 RMK A01 T00381079  RH  042%=      5-min Rain = 0
KBR1 241534Z 02012KT 04/M08 A3023 RMK A01 T00391077  RH  042%=      5-min Rain = 0
KBR1 241535Z 02013KT 04/M08 A3023 RMK A01 T00391079  RH  042%=      5-min Rain = 0
KBR1 241536Z 03011KT 04/M08 A3023 RMK A01 T00381082  RH  041%=      5-min Rain = 0
KBR1 241537Z 03012KT 04/M08 A3023 RMK A01 T00371080  RH  042%=      5-min Rain = 0
KBR1 241538Z 03015KT 04/M08 A3023 RMK A01 T00381079  RH  042%=      5-min Rain = 0
KBR1 241539Z 04013KT 04/M08 A3023 RMK A01 T00381081  RH  041%=      5-min Rain = 0
KBR1 241540Z 04011KT 04/M08 A3023 RMK A01 T00371081  RH  042%=      5-min Rain = 0
KBR1 241541Z 04012KT 04/M08 A3023 RMK A01 T00391080  RH  041%=      5-min Rain = 0
KBR1 241542Z 03012KT 04/M08 A3024 RMK A01 T00391082  RH  041%=      5-min Rain = 0
KBR1 241543Z 04011KT 04/M08 A3024 RMK A01 T00391081  RH  041%=      5-min Rain = 0
KBR1 241544Z 03011KT 04/M08 A3024 RMK A01 T00411079  RH  041%=      5-min Rain = 0
KBR1 241545Z 03011KT 04/M08 A3023 RMK A01 T00421080  RH  041%=      5-min Rain = 0
KBR1 241546Z 04013KT 04/M08 A3023 RMK A01 T00421080  RH  041%=      5-min Rain = 0
KBR1 241547Z 04013KT 04/M08 A3023 RMK A01 T00421080  RH  041%=      5-min Rain = 0
KBR1 241548Z 03014KT 04/M08 A3023 RMK A01 T00421081  RH  040%=      5-min Rain = 0
KBR1 241549Z 03014KT 04/M09 A3023 RMK A01 T00421085  RH  039%=      5-min Rain = 0
KBR1 241550Z 02012KT 04/M09 A3023 RMK A01 T00421086  RH  039%=      5-min Rain = 0
KBR1 241551Z 02013KT 04/M09 A3023 RMK A01 T00431085  RH  039%=      5-min Rain = 0
KBR1 241552Z 03014KT 04/M08 A3023 RMK A01 T00441084  RH  039%=      5-min Rain = 0
KBR1 241553Z 04012KT 05/M09 A3023 RMK A01 T00451085  RH  038%=      5-min Rain = 0
KBR1 241554Z 04014KT 05/M09 A3023 RMK A01 T00461085  RH  038%=      5-min Rain = 0
KBR1 241555Z 04011KT 05/M09 A3023 RMK A01 T00461087  RH  037%=      5-min Rain = 0
KBR1 241556Z 05012KT 05/M09 A3023 RMK A01 T00461087  RH  038%=      5-min Rain = 0
KBR1 241557Z 05012KT 05/M09 A3023 RMK A01 T00471087  RH  037%=      5-min Rain = 0
KBR1 241558Z 04014KT 05/M09 A3023 RMK A01 T00471087  RH  037%=      5-min Rain = 0
KBR1 241559Z 03015KT 05/M09 A3023 RMK A01 T00471089  RH  037%=      5-min Rain = 0
KBR1 241600Z 02012KT 05/M09 A3023 RMK A01 T00461092  RH  036%=      5-min Rain = 0
KBR1 241601Z 03015KT 05/M09 A3023 RMK A01 T00461090  RH  036%=      5-min Rain = 0
KBR1 241602Z 02012KT 05/M09 A3023 RMK A01 T00461090  RH  037%=      5-min Rain = 0
KBR1 241603Z 03012KT 05/M09 A3023 RMK A01 T00461089  RH  037%=      5-min Rain = 0
KBR1 241604Z 03014KT 05/M09 A3023 RMK A01 T00471086  RH  037%=      5-min Rain = 0
KBR1 241605Z 02012KT 05/M09 A3023 RMK A01 T00481087  RH  037%=      5-min Rain = 0
KBR1 241606Z 03012KT 05/M09 A3023 RMK A01 T00481087  RH  037%=      5-min Rain = 0
KBR1 241607Z 03014KT 05/M09 A3023 RMK A01 T00491087  RH  036%=      5-min Rain = 0
KBR1 241608Z 03012KT 05/M09 A3023 RMK A01 T00481090  RH  036%=      5-min Rain = 0
KBR1 241609Z 02012KT 05/M09 A3023 RMK A01 T00491087  RH  037%=      5-min Rain = 0
KBR1 241610Z 02012KT 05/M09 A3023 RMK A01 T00501086  RH  037%=      5-min Rain = 0
KBR1 241611Z 03012KT 05/M09 A3023 RMK A01 T00501089  RH  036%=      5-min Rain = 0
KBR1 241612Z 03011KT 05/M09 A3023 RMK A01 T00501089  RH  036%=      5-min Rain = 0
KBR1 241613Z 01010KT 05/M09 A3023 RMK A01 T00501087  RH  036%=      5-min Rain = 0
KBR1 241614Z 02010KT 05/M09 A3023 RMK A01 T00501085  RH  037%=      5-min Rain = 0
KBR1 241615Z 03011KT 05/M09 A3023 RMK A01 T00511086  RH  036%=      5-min Rain = 0
KBR1 241616Z 05010KT 05/M09 A3023 RMK A01 T00531086  RH  036%=      5-min Rain = 0
KBR1 241617Z 05008KT 05/M09 A3023 RMK A01 T00511089  RH  036%=      5-min Rain = 0
KBR1 241618Z 04013KT 05/M09 A3023 RMK A01 T00501086  RH  037%=      5-min Rain = 0
KBR1 241619Z 04012KT 05/M08 A3023 RMK A01 T00531084  RH  036%=      5-min Rain = 0
KBR1 241620Z 04011KT 05/M09 A3023 RMK A01 T00521086  RH  036%=      5-min Rain = 0
KBR1 241621Z 03009KT 05/M09 A3023 RMK A01 T00511086  RH  036%=      5-min Rain = 0
KBR1 241622Z 03012KT 05/M09 A3023 RMK A01 T00501086  RH  037%=      5-min Rain = 0
KBR1 241623Z 05010KT 05/M09 A3023 RMK A01 T00521085  RH  036%=      5-min Rain = 0
KBR1 241624Z 03012KT 06/M09 A3023 RMK A01 T00551086  RH  035%=      5-min Rain = 0
KBR1 241625Z 02011KT 05/M09 A3024 RMK A01 T00541087  RH  035%=      5-min Rain = 0
KBR1 241626Z 02010KT 05/M09 A3024 RMK A01 T00521087  RH  036%=      5-min Rain = 0
KBR1 241627Z 04011KT 05/M09 A3024 RMK A01 T00531086  RH  036%=      5-min Rain = 0
KBR1 241628Z 05011KT 05/M09 A3024 RMK A01 T00531087  RH  036%=      5-min Rain = 0
KBR1 241629Z 05012KT 06/M09 A3024 RMK A01 T00551089  RH  035%=      5-min Rain = 0
KBR1 241630Z 04013KT 06/M09 A3024 RMK A01 T00551090  RH  034%=      5-min Rain = 0
KBR1 241631Z 02010KT 06/M09 A3024 RMK A01 T00551089  RH  035%=      5-min Rain = 0
KBR1 241632Z 04011KT 06/M09 A3024 RMK A01 T00551089  RH  034%=      5-min Rain = 0
KBR1 241633Z 03012KT 06/M09 A3024 RMK A01 T00561089  RH  034%=      5-min Rain = 0
KBR1 241634Z 04011KT 05/M09 A3024 RMK A01 T00541090  RH  035%=      5-min Rain = 0
KBR1 241635Z 04013KT 05/M09 A3024 RMK A01 T00541089  RH  035%=      5-min Rain = 0
KBR1 241636Z 03013KT 05/M09 A3024 RMK A01 T00541091  RH  035%=      5-min Rain = 0
KBR1 241637Z 04012KT 05/M09 A3024 RMK A01 T00531091  RH  034%=      5-min Rain = 0
KBR1 241638Z 05010KT 05/M09 A3024 RMK A01 T00531092  RH  034%=      5-min Rain = 0
KBR1 241639Z 05009KT 05/M09 A3024 RMK A01 T00541092  RH  034%=      5-min Rain = 0
KBR1 241640Z 04012KT 06/M09 A3024 RMK A01 T00571088  RH  034%=      5-min Rain = 0
KBR1 241641Z 02011KT 06/M09 A3024 RMK A01 T00591089  RH  034%=      5-min Rain = 0
KBR1 241642Z 03012KT 06/M09 A3024 RMK A01 T00571088  RH  034%=      5-min Rain = 0
KBR1 241643Z 04010KT 06/M09 A3023 RMK A01 T00561089  RH  035%=      5-min Rain = 0
KBR1 241644Z 05010KT 06/M09 A3023 RMK A01 T00571085  RH  035%=      5-min Rain = 0
KBR1 241645Z 03010KT 06/M09 A3023 RMK A01 T00581087  RH  035%=      5-min Rain = 0
KBR1 241646Z 01011KT 06/M09 A3023 RMK A01 T00571087  RH  035%=      5-min Rain = 0
KBR1 241647Z 02012KT 06/M09 A3023 RMK A01 T00561088  RH  035%=      5-min Rain = 0
KBR1 241648Z 04012KT 06/M09 A3023 RMK A01 T00561088  RH  035%=      5-min Rain = 0
KBR1 241649Z 05013KT 06/M09 A3023 RMK A01 T00581087  RH  035%=      5-min Rain = 0
KBR1 241650Z 04011KT 06/M09 A3023 RMK A01 T00571089  RH  034%=      5-min Rain = 0
KBR1 241651Z 04009KT 06/M09 A3023 RMK A01 T00561093  RH  033%=      5-min Rain = 0
KBR1 241652Z 05011KT 06/M09 A3023 RMK A01 T00561093  RH  033%=      5-min Rain = 0
KBR1 241653Z 04010KT 06/M09 A3023 RMK A01 T00581091  RH  033%=      5-min Rain = 0
KBR1 241654Z 04010KT 06/M09 A3023 RMK A01 T00591094  RH  032%=      5-min Rain = 0
KBR1 241655Z 04010KT 06/M10 A3023 RMK A01 T00611097  RH  031%=      5-min Rain = 0
KBR1 241656Z 04008KT 06/M10 A3023 RMK A01 T00591098  RH  031%=      5-min Rain = 0
KBR1 241657Z 03008KT 06/M09 A3023 RMK A01 T00591094  RH  032%=      5-min Rain = 0
KBR1 241658Z 04009KT 06/M09 A3023 RMK A01 T00611090  RH  033%=      5-min Rain = 0
KBR1 241659Z 02009KT 06/M09 A3023 RMK A01 T00631087  RH  033%=      5-min Rain = 0
KBR1 241700Z 01011KT 06/M09 A3023 RMK A01 T00641086  RH  033%=      5-min Rain = 0
KBR1 241701Z 03010KT 07/M09 A3023 RMK A01 T00651087  RH  033%=      5-min Rain = 0
KBR1 241702Z 04011KT 07/M09 A3023 RMK A01 T00651091  RH  032%=      5-min Rain = 0
KBR1 241703Z 04009KT 06/M09 A3023 RMK A01 T00631093  RH  032%=      5-min Rain = 0
KBR1 241704Z 03009KT 06/M09 A3023 RMK A01 T00641093  RH  032%=      5-min Rain = 0
KBR1 241705Z 01010KT 07/M09 A3023 RMK A01 T00671087  RH  032%=      5-min Rain = 0
KBR1 241706Z 01011KT 07/M09 A3023 RMK A01 T00691086  RH  032%=      5-min Rain = 0
KBR1 241707Z 02010KT 07/M09 A3023 RMK A01 T00681088  RH  032%=      5-min Rain = 0
KBR1 241708Z 03012KT 07/M09 A3023 RMK A01 T00691087  RH  032%=      5-min Rain = 0
KBR1 241709Z 04013KT 07/M10 A3023 RMK A01 T00701096  RH  030%=      5-min Rain = 0
KBR1 241710Z 04011KT 07/M10 A3023 RMK A01 T00671101  RH  029%=      5-min Rain = 0
KBR1 241711Z 04011KT 07/M10 A3023 RMK A01 T00661102  RH  029%=      5-min Rain = 0
KBR1 241712Z 02011KT 07/M10 A3023 RMK A01 T00661098  RH  030%=      5-min Rain = 0
KBR1 241713Z 03008KT 07/M09 A3023 RMK A01 T00661093  RH  031%=      5-min Rain = 0
KBR1 241714Z 02009KT 07/M09 A3023 RMK A01 T00681093  RH  031%=      5-min Rain = 0
KBR1 241715Z 02009KT 07/M09 A3023 RMK A01 T00681091  RH  031%=      5-min Rain = 0
KBR1 241716Z 03012KT 07/M09 A3023 RMK A01 T00681087  RH  032%=      5-min Rain = 0
KBR1 241717Z 03011KT 07/M09 A3023 RMK A01 T00681089  RH  032%=      5-min Rain = 0
KBR1 241718Z 03011KT 06/M09 A3023 RMK A01 T00641093  RH  031%=      5-min Rain = 0
KBR1 241719Z 03009KT 06/M09 A3023 RMK A01 T00641094  RH  031%=      5-min Rain = 0
KBR1 241720Z 01010KT 06/M09 A3023 RMK A01 T00641091  RH  032%=      5-min Rain = 0
KBR1 241721Z 00008KT 07/M09 A3023 RMK A01 T00671092  RH  031%=      5-min Rain = 0
KBR1 241722Z 36008KT 07/M09 A3023 RMK A01 T00671094  RH  030%=      5-min Rain = 0
KBR1 241723Z 02008KT 07/M10 A3023 RMK A01 T00671096  RH  030%=      5-min Rain = 0
KBR1 241724Z 03009KT 07/M10 A3022 RMK A01 T00671098  RH  030%=      5-min Rain = 0
KBR1 241725Z 03010KT 07/M10 A3022 RMK A01 T00691096  RH  030%=      5-min Rain = 0
KBR1 241726Z 04013KT 07/M10 A3022 RMK A01 T00721095  RH  029%=      5-min Rain = 0
KBR1 241727Z 04012KT 07/M10 A3022 RMK A01 T00701097  RH  029%=      5-min Rain = 0
KBR1 241728Z 04007KT 07/M10 A3022 RMK A01 T00671099  RH  029%=      5-min Rain = 0
KBR1 241729Z 02008KT 07/M10 A3022 RMK A01 T00651097  RH  030%=      5-min Rain = 0
KBR1 241730Z 03008KT 07/M10 A3022 RMK A01 T00671097  RH  030%=      5-min Rain = 0
KBR1 241731Z 04010KT 07/M09 A3022 RMK A01 T00691094  RH  030%=      5-min Rain = 0
KBR1 241732Z 03011KT 07/M10 A3022 RMK A01 T00711097  RH  029%=      5-min Rain = 0
KBR1 241733Z 02011KT 07/M10 A3022 RMK A01 T00701099  RH  029%=      5-min Rain = 0
KBR1 241734Z 01010KT 07/M10 A3022 RMK A01 T00681097  RH  030%=      5-min Rain = 0
KBR1 241735Z 01009KT 07/M10 A3022 RMK A01 T00661097  RH  030%=      5-min Rain = 0
KBR1 241736Z 03009KT 07/M10 A3022 RMK A01 T00671095  RH  031%=      5-min Rain = 0
KBR1 241737Z 04009KT 07/M10 A3022 RMK A01 T00691095  RH  030%=      5-min Rain = 0
KBR1 241738Z 05008KT 07/M10 A3022 RMK A01 T00711098  RH  029%=      5-min Rain = 0
KBR1 241739Z 06008KT 07/M10 A3022 RMK A01 T00711096  RH  029%=      5-min Rain = 0
KBR1 241740Z 07011KT 07/M10 A3022 RMK A01 T00731101  RH  028%=      5-min Rain = 0
KBR1 241741Z 06010KT 07/M11 A3022 RMK A01 T00731110  RH  026%=      5-min Rain = 0
KBR1 241742Z 05010KT 07/M11 A3022 RMK A01 T00701114  RH  026%=      5-min Rain = 0
KBR1 241743Z 05007KT 07/M11 A3022 RMK A01 T00711109  RH  027%=      5-min Rain = 0
KBR1 241744Z 04005KT 07/M11 A3022 RMK A01 T00711110  RH  026%=      5-min Rain = 0
KBR1 241745Z 05006KT 07/M11 A3022 RMK A01 T00701108  RH  027%=      5-min Rain = 0
KBR1 241746Z 03005KT 07/M10 A3022 RMK A01 T00721104  RH  027%=      5-min Rain = 0
KBR1 241747Z 03009KT 08/M10 A3022 RMK A01 T00751100  RH  028%=      5-min Rain = 0
KBR1 241748Z 06013KT 08/M11 A3022 RMK A01 T00771106  RH  026%=      5-min Rain = 0
KBR1 241749Z 06010KT 08/M11 A3022 RMK A01 T00761114  RH  025%=      5-min Rain = 0
KBR1 241750Z 07010KT 07/M11 A3022 RMK A01 T00741114  RH  025%=      5-min Rain = 0
KBR1 241751Z 09007KT 07/M11 A3022 RMK A01 T00731112  RH  026%=      5-min Rain = 0
KBR1 241752Z 08006KT 07/M11 A3022 RMK A01 T00731113  RH  025%=      5-min Rain = 0
KBR1 241753Z 04007KT 07/M11 A3022 RMK A01 T00731108  RH  026%=      5-min Rain = 0
KBR1 241754Z 03009KT 08/M10 A3022 RMK A01 T00781100  RH  027%=      5-min Rain = 0
KBR1 241755Z 04006KT 08/M10 A3022 RMK A01 T00801103  RH  026%=      5-min Rain = 0
KBR1 241756Z 06011KT 08/M11 A3022 RMK A01 T00801107  RH  025%=      5-min Rain = 0
KBR1 241757Z 06008KT 08/M12 A3022 RMK A01 T00791116  RH  024%=      5-min Rain = 0
KBR1 241758Z 06007KT 08/M12 A3022 RMK A01 T00781117  RH  024%=      5-min Rain = 0
KBR1 241759Z 08007KT 08/M11 A3022 RMK A01 T00781114  RH  024%=      5-min Rain = 0
KBR1 241800Z 08006KT 08/M12 A3022 RMK A01 T00811115  RH  023%=      5-min Rain = 0
KBR1 241801Z 07005KT 08/M12 A3022 RMK A01 T00811116  RH  023%=      5-min Rain = 0
KBR1 241802Z 09005KT 08/M12 A3022 RMK A01 T00791115  RH  024%=      5-min Rain = 0
KBR1 241803Z 07010KT 08/M11 A3022 RMK A01 T00811109  RH  025%=      5-min Rain = 0
KBR1 241804Z 05009KT 08/M11 A3022 RMK A01 T00811109  RH  025%=      5-min Rain = 0
KBR1 241805Z 06012KT 08/M11 A3022 RMK A01 T00841112  RH  024%=      5-min Rain = 0
KBR1 241806Z 07011KT 08/M12 A3022 RMK A01 T00821121  RH  022%=      5-min Rain = 0
KBR1 241807Z 07009KT 08/M12 A3022 RMK A01 T00811118  RH  023%=      5-min Rain = 0
KBR1 241808Z 06008KT 08/M12 A3022 RMK A01 T00801116  RH  024%=      5-min Rain = 0
KBR1 241809Z 07006KT 08/M12 A3021 RMK A01 T00781118  RH  023%=      5-min Rain = 0
KBR1 241810Z 06006KT 08/M12 A3021 RMK A01 T00771116  RH  024%=      5-min Rain = 0
KBR1 241811Z 06007KT 08/M11 A3021 RMK A01 T00791110  RH  025%=      5-min Rain = 0
KBR1 241812Z 05009KT 08/M10 A3021 RMK A01 T00831104  RH  025%=      5-min Rain = 0
KBR1 241813Z 05011KT 08/M11 A3021 RMK A01 T00821108  RH  025%=      5-min Rain = 0
KBR1 241814Z 06013KT 08/M11 A3021 RMK A01 T00831109  RH  024%=      5-min Rain = 0
KBR1 241815Z 05014KT 08/M11 A3021 RMK A01 T00821113  RH  024%=      5-min Rain = 0
KBR1 241816Z 05011KT 08/M12 A3021 RMK A01 T00801115  RH  024%=      5-min Rain = 0
KBR1 241817Z 05010KT 08/M11 A3021 RMK A01 T00801113  RH  024%=      5-min Rain = 0
KBR1 241818Z 04007KT 08/M11 A3021 RMK A01 T00811114  RH  024%=      5-min Rain = 0
KBR1 241819Z 05007KT 08/M12 A3021 RMK A01 T00811116  RH  023%=      5-min Rain = 0
KBR1 241820Z 08011KT 08/M11 A3021 RMK A01 T00831114  RH  024%=      5-min Rain = 0
KBR1 241821Z 08010KT 08/M12 A3021 RMK A01 T00841115  RH  023%=      5-min Rain = 0
KBR1 241822Z 06008KT 08/M12 A3021 RMK A01 T00841118  RH  023%=      5-min Rain = 0
KBR1 241823Z 07008KT 08/M12 A3021 RMK A01 T00831119  RH  022%=      5-min Rain = 0
KBR1 241824Z 10009KT 09/M12 A302 RMK A01 T00851119  RH  022%=      5-min Rain = 0
KBR1 241825Z 09009KT 08/M12 A302 RMK A01 T00841121  RH  022%=      5-min Rain = 0
KBR1 241826Z 09007KT 09/M11 A302 RMK A01 T00861112  RH  024%=      5-min Rain = 0
KBR1 241827Z 07009KT 09/M11 A302 RMK A01 T00891108  RH  024%=      5-min Rain = 0
KBR1 241828Z 05012KT 09/M11 A302 RMK A01 T00881114  RH  023%=      5-min Rain = 0
KBR1 241829Z 06012KT 09/M12 A3021 RMK A01 T00861120  RH  022%=      5-min Rain = 0
KBR1 241830Z 10009KT 09/M12 A3021 RMK A01 T00851120  RH  022%=      5-min Rain = 0
KBR1 241831Z 12007KT 09/M12 A302 RMK A01 T00851118  RH  022%=      5-min Rain = 0
KBR1 241832Z 06007KT 08/M12 A302 RMK A01 T00821119  RH  023%=      5-min Rain = 0
KBR1 241833Z 07009G14KT 08/M12 A302 RMK A01 T00821117  RH  023%=      5-min Rain = 0
KBR1 241834Z 06012KT 09/M11 A302 RMK A01 T00851113  RH  023%=      5-min Rain = 0
KBR1 241835Z 08011KT 09/M11 A3021 RMK A01 T00881112  RH  023%=      5-min Rain = 0
KBR1 241836Z 07009KT 09/M12 A302 RMK A01 T00861118  RH  022%=      5-min Rain = 0
KBR1 241837Z 10008KT 09/M11 A302 RMK A01 T00851114  RH  023%=      5-min Rain = 0
KBR1 241838Z 11009KT 09/M12 A302 RMK A01 T00851115  RH  023%=      5-min Rain = 0
KBR1 241839Z 11007KT 09/M11 A302 RMK A01 T00851114  RH  023%=      5-min Rain = 0
KBR1 241840Z 11007KT 09/M11 A302 RMK A01 T00851112  RH  023%=      5-min Rain = 0
KBR1 241841Z 10009KT 09/M11 A302 RMK A01 T00871109  RH  024%=      5-min Rain = 0
KBR1 241842Z 07009KT 09/M11 A302 RMK A01 T00881111  RH  023%=      5-min Rain = 0
KBR1 241843Z 06010KT 09/M11 A302 RMK A01 T00881112  RH  023%=      5-min Rain = 0
KBR1 241844Z 06010KT 09/M11 A302 RMK A01 T00871114  RH  023%=      5-min Rain = 0
KBR1 241845Z 06011KT 09/M11 A302 RMK A01 T00861114  RH  023%=      5-min Rain = 0
KBR1 241846Z 07012KT 09/M12 A302 RMK A01 T00861117  RH  022%=      5-min Rain = 0
KBR1 241847Z 09010KT 09/M12 A302 RMK A01 T00861117  RH  022%=      5-min Rain = 0
KBR1 241848Z 08009KT 09/M12 A302 RMK A01 T00861116  RH  023%=      5-min Rain = 0
KBR1 241849Z 09009KT 09/M12 A302 RMK A01 T00871115  RH  023%=      5-min Rain = 0
KBR1 241850Z 09007KT 09/M11 A302 RMK A01 T00871113  RH  023%=      5-min Rain = 0
KBR1 241851Z 07005KT 09/M11 A302 RMK A01 T00891112  RH  023%=      5-min Rain = 0
KBR1 241852Z 06006G12KT 09/M11 A302 RMK A01 T00901114  RH  022%=      5-min Rain = 0
KBR1 241853Z 05009KT 09/M11 A302 RMK A01 T00911113  RH  022%=      5-min Rain = 0
KBR1 241854Z 09008KT 09/M12 A302 RMK A01 T00941115  RH  022%=      5-min Rain = 0
KBR1 241855Z 09009KT 10/M12 A302 RMK A01 T00951116  RH  021%=      5-min Rain = 0
KBR1 241856Z 10009G14KT 09/M12 A302 RMK A01 T00941117  RH  021%=      5-min Rain = 0
KBR1 241857Z 09010KT 09/M12 A302 RMK A01 T00921117  RH  022%=      5-min Rain = 0
KBR1 241858Z 08006KT 09/M12 A3019 RMK A01 T00891119  RH  022%=      5-min Rain = 0
KBR1 241859Z 08008KT 09/M12 A3019 RMK A01 T00871117  RH  022%=      5-min Rain = 0
KBR1 241900Z 09008KT 09/M11 A3019 RMK A01 T00891111  RH  023%=      5-min Rain = 0
KBR1 241901Z 09007KT 09/M11 A3019 RMK A01 T00901112  RH  023%=      5-min Rain = 0
KBR1 241902Z 09007KT 09/M11 A3019 RMK A01 T00891112  RH  023%=      5-min Rain = 0
KBR1 241903Z 08010KT 09/M11 A3019 RMK A01 T00921108  RH  023%=      5-min Rain = 0
KBR1 241904Z 08008KT 09/M11 A3019 RMK A01 T00911109  RH  023%=      5-min Rain = 0
KBR1 241905Z 06007KT 09/M11 A3019 RMK A01 T00901110  RH  023%=      5-min Rain = 0
KBR1 241906Z 05008KT 09/M11 A3019 RMK A01 T00901108  RH  023%=      5-min Rain = 0
KBR1 241907Z 04009KT 09/M11 A3019 RMK A01 T00901109  RH  023%=      5-min Rain = 0
KBR1 241908Z 05012KT 09/M11 A3019 RMK A01 T00911109  RH  023%=      5-min Rain = 0
KBR1 241909Z 04014KT 09/M11 A3019 RMK A01 T00931108  RH  023%=      5-min Rain = 0
KBR1 241910Z 05014KT 09/M11 A3019 RMK A01 T00941109  RH  023%=      5-min Rain = 0
KBR1 241911Z 04010KT 09/M11 A3019 RMK A01 T00931111  RH  022%=      5-min Rain = 0
KBR1 241912Z 06012KT 09/M11 A3019 RMK A01 T00921111  RH  023%=      5-min Rain = 0
KBR1 241913Z 06009KT 09/M11 A3019 RMK A01 T00921113  RH  022%=      5-min Rain = 0
KBR1 241914Z 07006KT 09/M12 A3019 RMK A01 T00891115  RH  022%=      5-min Rain = 0
KBR1 241915Z 08010KT 09/M11 A3019 RMK A01 T00901110  RH  023%=      5-min Rain = 0
KBR1 241916Z 09012KT 09/M11 A3019 RMK A01 T00931107  RH  023%=      5-min Rain = 0
KBR1 241917Z 10011KT 10/M11 A3019 RMK A01 T00951109  RH  023%=      5-min Rain = 0
KBR1 241918Z 08011KT 09/M11 A3019 RMK A01 T00931111  RH  022%=      5-min Rain = 0
KBR1 241919Z 08010KT 09/M11 A3019 RMK A01 T00941110  RH  023%=      5-min Rain = 0
KBR1 241920Z 07011KT 09/M11 A3019 RMK A01 T00931111  RH  023%=      5-min Rain = 0
KBR1 241921Z 07009KT 09/M11 A3019 RMK A01 T00921110  RH  023%=      5-min Rain = 0
KBR1 241922Z 08008KT 09/M11 A3019 RMK A01 T00921110  RH  023%=      5-min Rain = 0
KBR1 241923Z 06009KT 09/M11 A3018 RMK A01 T00921109  RH  023%=      5-min Rain = 0
KBR1 241924Z 05010KT 09/M11 A3018 RMK A01 T00941106  RH  023%=      5-min Rain = 0
KBR1 241925Z 05006KT 09/M11 A3018 RMK A01 T00931109  RH  023%=      5-min Rain = 0
KBR1 241926Z 05009KT 09/M11 A3018 RMK A01 T00931106  RH  023%=      5-min Rain = 0
KBR1 241927Z 05008KT 10/M10 A3018 RMK A01 T00951104  RH  023%=      5-min Rain = 0
KBR1 241928Z 09008KT 10/M11 A3018 RMK A01 T00951107  RH  023%=      5-min Rain = 0
KBR1 241929Z 10008KT 09/M11 A3018 RMK A01 T00931108  RH  023%=      5-min Rain = 0
KBR1 241930Z 10007KT 09/M11 A3018 RMK A01 T00911108  RH  023%=      5-min Rain = 0
KBR1 241931Z 11007KT 09/M11 A3018 RMK A01 T00901108  RH  023%=      5-min Rain = 0
KBR1 241932Z 08010KT 09/M10 A3018 RMK A01 T00931103  RH  024%=      5-min Rain = 0
KBR1 241933Z 08012KT 10/M10 A3018 RMK A01 T00971102  RH  024%=      5-min Rain = 0
KBR1 241934Z 08012KT 10/M10 A3018 RMK A01 T00981103  RH  023%=      5-min Rain = 0
KBR1 241935Z 09008KT 10/M11 A3018 RMK A01 T00951109  RH  023%=      5-min Rain = 0
KBR1 241936Z 10006KT 09/M11 A3018 RMK A01 T00911110  RH  023%=      5-min Rain = 0
KBR1 241937Z 06008KT 09/M11 A3018 RMK A01 T00901108  RH  023%=      5-min Rain = 0
KBR1 241938Z 03004KT 09/M11 A3017 RMK A01 T00911110  RH  023%=      5-min Rain = 0
KBR1 241939Z 02006KT 09/M11 A3017 RMK A01 T00891110  RH  023%=      5-min Rain = 0
KBR1 241940Z 06005KT 09/M11 A3017 RMK A01 T00901105  RH  024%=      5-min Rain = 0
KBR1 241941Z 08010KT 10/M10 A3017 RMK A01 T00951102  RH  024%=      5-min Rain = 0
KBR1 241942Z 08010KT 10/M10 A3017 RMK A01 T01001101  RH  023%=      5-min Rain = 0
KBR1 241943Z 06008KT 10/M10 A3017 RMK A01 T01011104  RH  022%=      5-min Rain = 0
KBR1 241944Z 08008KT 10/M11 A3017 RMK A01 T00991108  RH  022%=      5-min Rain = 0
KBR1 241945Z 08007KT 10/M11 A3017 RMK A01 T00961108  RH  022%=      5-min Rain = 0
KBR1 241946Z 09008KT 09/M11 A3017 RMK A01 T00941110  RH  023%=      5-min Rain = 0
KBR1 241947Z 09005KT 09/M11 A3017 RMK A01 T00911109  RH  023%=      5-min Rain = 0
KBR1 241948Z 10004KT 09/M11 A3017 RMK A01 T00901109  RH  023%=      5-min Rain = 0
KBR1 241949Z 06004KT 09/M11 A3017 RMK A01 T00891107  RH  024%=      5-min Rain = 0
KBR1 241950Z 06006KT 09/M11 A3017 RMK A01 T00911105  RH  024%=      5-min Rain = 0
KBR1 241951Z 06005KT 09/M10 A3017 RMK A01 T00931102  RH  024%=      5-min Rain = 0
KBR1 241952Z 14008G13KT 10/M10 A3017 RMK A01 T00971100  RH  024%=      5-min Rain = 0
KBR1 241953Z 11012G18KT 10/M10 A3017 RMK A01 T00991101  RH  023%=      5-min Rain = 0
KBR1 241954Z 10010KT 10/M10 A3017 RMK A01 T01001104  RH  023%=      5-min Rain = 0
KBR1 241955Z 10009KT 10/M10 A3017 RMK A01 T00991104  RH  023%=      5-min Rain = 0
KBR1 241956Z 11008KT 10/M10 A3017 RMK A01 T00991103  RH  023%=      5-min Rain = 0
KBR1 241957Z 09007KT 10/M10 A3017 RMK A01 T00991102  RH  023%=      5-min Rain = 0
KBR1 241958Z 09007KT 10/M11 A3016 RMK A01 T00981105  RH  023%=      5-min Rain = 0
KBR1 241959Z 09008KT 10/M10 A3016 RMK A01 T00971103  RH  023%=      5-min Rain = 0
KBR1 242000Z 11009KT 10/M10 A3016 RMK A01 T00971104  RH  023%=      5-min Rain = 0
KBR1 242001Z 12008KT 10/M10 A3016 RMK A01 T00961104  RH  023%=      5-min Rain = 0
KBR1 242002Z 14007KT 10/M10 A3016 RMK A01 T00961104  RH  023%=      5-min Rain = 0
KBR1 242003Z 12007KT 10/M10 A3016 RMK A01 T00961102  RH  024%=      5-min Rain = 0
KBR1 242004Z 11013G20KT 10/M10 A3016 RMK A01 T01011097  RH  024%=      5-min Rain = 0
KBR1 242005Z 13009KT 10/M10 A3016 RMK A01 T01021099  RH  023%=      5-min Rain = 0
KBR1 242006Z 10012KT 10/M10 A3016 RMK A01 T00981102  RH  023%=      5-min Rain = 0
KBR1 242007Z 10009KT 10/M10 A3016 RMK A01 T00981100  RH  024%=      5-min Rain = 0
KBR1 242008Z 09011KT 10/M10 A3016 RMK A01 T01021097  RH  024%=      5-min Rain = 0
KBR1 242009Z 07006KT 10/M11 A3016 RMK A01 T00981105  RH  023%=      5-min Rain = 0
KBR1 242010Z 07003KT 10/M10 A3016 RMK A01 T00951102  RH  024%=      5-min Rain = 0
KBR1 242011Z 08003KT 10/M10 A3016 RMK A01 T00961103  RH  023%=      5-min Rain = 0
KBR1 242012Z 09004KT 10/M10 A3016 RMK A01 T00961101  RH  024%=      5-min Rain = 0
KBR1 242013Z 10003KT 10/M10 A3016 RMK A01 T00971102  RH  023%=      5-min Rain = 0
KBR1 242014Z 09007KT 10/M10 A3016 RMK A01 T00981100  RH  024%=      5-min Rain = 0
KBR1 242015Z 11007KT 10/M10 A3016 RMK A01 T00991099  RH  024%=      5-min Rain = 0
KBR1 242016Z 10009G16KT 10/M10 A3016 RMK A01 T01011096  RH  024%=      5-min Rain = 0
KBR1 242017Z 12010KT 10/M10 A3015 RMK A01 T01041095  RH  024%=      5-min Rain = 0
KBR1 242018Z 12007KT 10/M10 A3015 RMK A01 T01021101  RH  023%=      5-min Rain = 0
KBR1 242019Z 14005KT 10/M11 A3015 RMK A01 T00971105  RH  023%=      5-min Rain = 0
KBR1 242020Z 16008KT 10/M10 A3015 RMK A01 T00971100  RH  024%=      5-min Rain = 0
KBR1 242021Z 15010G15KT 10/M10 A3015 RMK A01 T00991100  RH  023%=      5-min Rain = 0
KBR1 242022Z 11009KT 10/M10 A3015 RMK A01 T01011098  RH  024%=      5-min Rain = 0
KBR1 242023Z 12011KT 11/M09 A3015 RMK A01 T01051093  RH  024%=      5-min Rain = 0
KBR1 242024Z 12010KT 11/M10 A3015 RMK A01 T01061096  RH  023%=      5-min Rain = 0
KBR1 242025Z 12006KT 10/M10 A3015 RMK A01 T01031099  RH  023%=      5-min Rain = 0
KBR1 242026Z 12005KT 10/M10 A3015 RMK A01 T00981102  RH  023%=      5-min Rain = 0
KBR1 242027Z 10005KT 10/M10 A3015 RMK A01 T00951101  RH  024%=      5-min Rain = 0
KBR1 242028Z 10005KT 10/M10 A3015 RMK A01 T00961098  RH  024%=      5-min Rain = 0
KBR1 242029Z 08005KT 10/M10 A3015 RMK A01 T00961099  RH  024%=      5-min Rain = 0
KBR1 242030Z 10002KT 10/M10 A3015 RMK A01 T00951100  RH  024%=      5-min Rain = 0
KBR1 242031Z 15006KT 10/M10 A3015 RMK A01 T00961096  RH  025%=      5-min Rain = 0
KBR1 242032Z 15008KT 10/M10 A3014 RMK A01 T01001096  RH  024%=      5-min Rain = 0
KBR1 242033Z 12006KT 10/M10 A3014 RMK A01 T01011096  RH  024%=      5-min Rain = 0
KBR1 242034Z 12007KT 10/M09 A3014 RMK A01 T01041093  RH  024%=      5-min Rain = 0
KBR1 242035Z 15010KT 11/M09 A3014 RMK A01 T01081092  RH  024%=      5-min Rain = 0
KBR1 242036Z 14010KT 11/M10 A3014 RMK A01 T01071095  RH  023%=      5-min Rain = 0
KBR1 242037Z 16009KT 11/M10 A3014 RMK A01 T01061095  RH  023%=      5-min Rain = 0
KBR1 242038Z 14008KT 11/M10 A3014 RMK A01 T01051097  RH  023%=      5-min Rain = 0
KBR1 242039Z 13011KT 10/M10 A3014 RMK A01 T01031097  RH  023%=      5-min Rain = 0
KBR1 242040Z 13011KT 10/M10 A3014 RMK A01 T01021097  RH  024%=      5-min Rain = 0
KBR1 242041Z 13008KT 10/M10 A3014 RMK A01 T01021097  RH  024%=      5-min Rain = 0
KBR1 242042Z 12008KT 10/M10 A3014 RMK A01 T01011098  RH  024%=      5-min Rain = 0
KBR1 242043Z 10010KT 10/M10 A3014 RMK A01 T01011097  RH  024%=      5-min Rain = 0
KBR1 242044Z 13009KT 10/M10 A3014 RMK A01 T01001100  RH  023%=      5-min Rain = 0
KBR1 242045Z 14006KT 10/M10 A3014 RMK A01 T00991099  RH  024%=      5-min Rain = 0
KBR1 242046Z 14005KT 10/M10 A3014 RMK A01 T00981099  RH  024%=      5-min Rain = 0
KBR1 242047Z 13004KT 10/M10 A3014 RMK A01 T00981098  RH  024%=      5-min Rain = 0
KBR1 242048Z 14008KT 10/M10 A3014 RMK A01 T00981099  RH  024%=      5-min Rain = 0
KBR1 242049Z 14006KT 10/M10 A3014 RMK A01 T00991097  RH  024%=      5-min Rain = 0
KBR1 242050Z 15006KT 10/M10 A3014 RMK A01 T00991097  RH  024%=      5-min Rain = 0
KBR1 242051Z 12004KT 10/M10 A3014 RMK A01 T00991098  RH  024%=      5-min Rain = 0
KBR1 242052Z 10003KT 10/M10 A3014 RMK A01 T00981100  RH  024%=      5-min Rain = 0
KBR1 242053Z 14004KT 10/M10 A3014 RMK A01 T00971099  RH  024%=      5-min Rain = 0
KBR1 242054Z 13005KT 10/M10 A3014 RMK A01 T00981096  RH  025%=      5-min Rain = 0
KBR1 242055Z 14011G17KT 10/M10 A3014 RMK A01 T01001095  RH  024%=      5-min Rain = 0
KBR1 242056Z 14011KT 10/M10 A3014 RMK A01 T01031096  RH  024%=      5-min Rain = 0
KBR1 242057Z 15011KT 11/M09 A3014 RMK A01 T01051094  RH  024%=      5-min Rain = 0
KBR1 242058Z 15010KT 11/M10 A3014 RMK A01 T01061096  RH  023%=      5-min Rain = 0
KBR1 242059Z 14010KT 11/M10 A3014 RMK A01 T01071096  RH  023%=      5-min Rain = 0
KBR1 242100Z 12008KT 11/M10 A3014 RMK A01 T01081096  RH  023%=      5-min Rain = 0
KBR1 242101Z 12006KT 10/M10 A3014 RMK A01 T01031102  RH  023%=      5-min Rain = 0
KBR1 242102Z 12007KT 10/M10 A3014 RMK A01 T01011100  RH  023%=      5-min Rain = 0
KBR1 242103Z 12006KT 10/M10 A3014 RMK A01 T01021099  RH  023%=      5-min Rain = 0
KBR1 242104Z 12004KT 10/M10 A3014 RMK A01 T01001100  RH  023%=      5-min Rain = 0
KBR1 242105Z 11004KT 10/M10 A3014 RMK A01 T01001100  RH  023%=      5-min Rain = 0
KBR1 242106Z 09005G11KT 10/M10 A3014 RMK A01 T01001100  RH  023%=      5-min Rain = 0
KBR1 242107Z 12007KT 10/M10 A3013 RMK A01 T01001098  RH  024%=      5-min Rain = 0
KBR1 242108Z 13008KT 10/M10 A3013 RMK A01 T01011099  RH  023%=      5-min Rain = 0
KBR1 242109Z 12007KT 10/M10 A3013 RMK A01 T01011098  RH  024%=      5-min Rain = 0
KBR1 242110Z 11007KT 10/M10 A3014 RMK A01 T01011097  RH  024%=      5-min Rain = 0
KBR1 242111Z 10008KT 10/M10 A3014 RMK A01 T01021095  RH  024%=      5-min Rain = 0
KBR1 242112Z 11009KT 11/M10 A3013 RMK A01 T01051096  RH  023%=      5-min Rain = 0
KBR1 242113Z 10008KT 10/M10 A3013 RMK A01 T01041098  RH  023%=      5-min Rain = 0
KBR1 242114Z 13008KT 10/M10 A3013 RMK A01 T01021098  RH  023%=      5-min Rain = 0
KBR1 242115Z 16005KT 10/M10 A3013 RMK A01 T01031097  RH  023%=      5-min Rain = 0
KBR1 242116Z 13006KT 10/M10 A3013 RMK A01 T01041098  RH  023%=      5-min Rain = 0
KBR1 242117Z 12006KT 11/M10 A3013 RMK A01 T01051097  RH  023%=      5-min Rain = 0
KBR1 242118Z 17005KT 11/M10 A3013 RMK A01 T01051098  RH  023%=      5-min Rain = 0
KBR1 242119Z 16005KT 11/M10 A3013 RMK A01 T01061096  RH  023%=      5-min Rain = 0
KBR1 242120Z 13006KT 11/M10 A3013 RMK A01 T01071098  RH  023%=      5-min Rain = 0
KBR1 242121Z 12007KT 11/M10 A3013 RMK A01 T01071097  RH  023%=      5-min Rain = 0
KBR1 242122Z 13008KT 11/M10 A3013 RMK A01 T01071097  RH  023%=      5-min Rain = 0
KBR1 242123Z 13009KT 11/M10 A3013 RMK A01 T01081097  RH  023%=      5-min Rain = 0
KBR1 242124Z 13009KT 11/M10 A3014 RMK A01 T01091095  RH  023%=      5-min Rain = 0
KBR1 242125Z 11007KT 11/M10 A3014 RMK A01 T01081098  RH  022%=      5-min Rain = 0
KBR1 242126Z 12005KT 11/M10 A3014 RMK A01 T01081098  RH  023%=      5-min Rain = 0
KBR1 242127Z 13009G14KT 11/M10 A3014 RMK A01 T01071097  RH  023%=      5-min Rain = 0
KBR1 242128Z 13008KT 11/M10 A3014 RMK A01 T01071098  RH  023%=      5-min Rain = 0
KBR1 242129Z 16010KT 11/M10 A3014 RMK A01 T01051100  RH  023%=      5-min Rain = 0
KBR1 242130Z 18007KT 11/M10 A3013 RMK A01 T01051099  RH  023%=      5-min Rain = 0
KBR1 242131Z 18005KT 10/M10 A3013 RMK A01 T01041101  RH  023%=      5-min Rain = 0
KBR1 242132Z 19005KT 10/M10 A3013 RMK A01 T01041100  RH  023%=      5-min Rain = 0
KBR1 242133Z 16004KT 11/M10 A3013 RMK A01 T01051100  RH  023%=      5-min Rain = 0
KBR1 242134Z 13005KT 10/M10 A3013 RMK A01 T01041100  RH  023%=      5-min Rain = 0
KBR1 242135Z 13003KT 11/M10 A3013 RMK A01 T01051101  RH  023%=      5-min Rain = 0
KBR1 242136Z 13003KT 10/M10 A3013 RMK A01 T01041101  RH  023%=      5-min Rain = 0
KBR1 242137Z 14006KT 11/M10 A3013 RMK A01 T01051100  RH  023%=      5-min Rain = 0
KBR1 242138Z 14010KT 11/M10 A3013 RMK A01 T01081096  RH  023%=      5-min Rain = 0
KBR1 242139Z 13010KT 11/M10 A3013 RMK A01 T01091097  RH  023%=      5-min Rain = 0
KBR1 242140Z 13009KT 11/M10 A3013 RMK A01 T01071099  RH  022%=      5-min Rain = 0
KBR1 242141Z 14010KT 11/M10 A3013 RMK A01 T01061099  RH  023%=      5-min Rain = 0
KBR1 242142Z 15011KT 11/M10 A3013 RMK A01 T01071097  RH  023%=      5-min Rain = 0
KBR1 242143Z 16009KT 11/M10 A3013 RMK A01 T01071098  RH  023%=      5-min Rain = 0
KBR1 242144Z 15008KT 11/M10 A3013 RMK A01 T01071098  RH  023%=      5-min Rain = 0
KBR1 242145Z 14013KT 11/M10 A3013 RMK A01 T01081098  RH  023%=      5-min Rain = 0
KBR1 242146Z 15011KT 11/M10 A3013 RMK A01 T01091097  RH  023%=      5-min Rain = 0
KBR1 242147Z 14007KT 11/M10 A3013 RMK A01 T01091098  RH  022%=      5-min Rain = 0
KBR1 242148Z 14009KT 11/M10 A3013 RMK A01 T01101095  RH  023%=      5-min Rain = 0
KBR1 242149Z 15009KT 11/M09 A3013 RMK A01 T01131094  RH  023%=      5-min Rain = 0
KBR1 242150Z 15007KT 11/M10 A3013 RMK A01 T01131096  RH  022%=      5-min Rain = 0
KBR1 242151Z 16007KT 11/M10 A3013 RMK A01 T01091100  RH  022%=      5-min Rain = 0
KBR1 242152Z 16005KT 11/M10 A3013 RMK A01 T01081099  RH  022%=      5-min Rain = 0
KBR1 242153Z 18006KT 11/M10 A3013 RMK A01 T01081096  RH  023%=      5-min Rain = 0
KBR1 242154Z 14008KT 11/M10 A3013 RMK A01 T01091097  RH  023%=      5-min Rain = 0
KBR1 242155Z 14010KT 11/M10 A3013 RMK A01 T01111096  RH  022%=      5-min Rain = 0
KBR1 242156Z 11012KT 11/M10 A3013 RMK A01 T01111097  RH  022%=      5-min Rain = 0
KBR1 242157Z 10009KT 11/M10 A3013 RMK A01 T01101098  RH  022%=      5-min Rain = 0
KBR1 242158Z 09010KT 11/M10 A3013 RMK A01 T01081099  RH  022%=      5-min Rain = 0
KBR1 242159Z 11010KT 11/M10 A3013 RMK A01 T01071098  RH  023%=      5-min Rain = 0
KBR1 242200Z 12007KT 11/M10 A3013 RMK A01 T01081098  RH  023%=      5-min Rain = 0
KBR1 242201Z 11006KT 11/M10 A3013 RMK A01 T01071100  RH  022%=      5-min Rain = 0
KBR1 242202Z 08005KT 11/M10 A3013 RMK A01 T01051100  RH  023%=      5-min Rain = 0
KBR1 242203Z 09003KT 11/M10 A3013 RMK A01 T01061097  RH  023%=      5-min Rain = 0
KBR1 242204Z 12006KT 11/M10 A3013 RMK A01 T01081096  RH  023%=      5-min Rain = 0
KBR1 242205Z 14009KT 11/M10 A3013 RMK A01 T01101095  RH  023%=      5-min Rain = 0
KBR1 242206Z 14013KT 11/M10 A3013 RMK A01 T01121095  RH  023%=      5-min Rain = 0
KBR1 242207Z 14009KT 11/M10 A3013 RMK A01 T01121096  RH  022%=      5-min Rain = 0
KBR1 242208Z 16008KT 11/M10 A3013 RMK A01 T01111097  RH  022%=      5-min Rain = 0
KBR1 242209Z 15007KT 11/M10 A3013 RMK A01 T01111097  RH  022%=      5-min Rain = 0
KBR1 242210Z 16005KT 11/M10 A3013 RMK A01 T01111097  RH  022%=      5-min Rain = 0
KBR1 242211Z 14005KT 11/M10 A3013 RMK A01 T01091100  RH  022%=      5-min Rain = 0
KBR1 242212Z 15005KT 11/M10 A3012 RMK A01 T01091098  RH  022%=      5-min Rain = 0
KBR1 242213Z 12010KT 11/M10 A3012 RMK A01 T01091098  RH  022%=      5-min Rain = 0
KBR1 242214Z 12010KT 11/M10 A3012 RMK A01 T01091098  RH  022%=      5-min Rain = 0
KBR1 242215Z 12007KT 11/M10 A3012 RMK A01 T01071099  RH  022%=      5-min Rain = 0
KBR1 242216Z 11006KT 11/M10 A3012 RMK A01 T01071098  RH  023%=      5-min Rain = 0
KBR1 242217Z 13006KT 11/M10 A3012 RMK A01 T01071098  RH  023%=      5-min Rain = 0
KBR1 242218Z 14007KT 11/M10 A3012 RMK A01 T01081097  RH  023%=      5-min Rain = 0
KBR1 242219Z 14007KT 11/M10 A3012 RMK A01 T01091096  RH  023%=      5-min Rain = 0
KBR1 242220Z 14006KT 11/M10 A3012 RMK A01 T01111096  RH  022%=      5-min Rain = 0
KBR1 242221Z 13008KT 11/M10 A3012 RMK A01 T01111096  RH  022%=      5-min Rain = 0
KBR1 242222Z 11011KT 11/M10 A3012 RMK A01 T01121095  RH  022%=      5-min Rain = 0
KBR1 242223Z 12009KT 11/M10 A3012 RMK A01 T01121097  RH  022%=      5-min Rain = 0
KBR1 242224Z 12005KT 11/M10 A3013 RMK A01 T01081100  RH  022%=      5-min Rain = 0
KBR1 242225Z 11005KT 11/M10 A3012 RMK A01 T01061101  RH  022%=      5-min Rain = 0
KBR1 242226Z 09005KT 11/M10 A3012 RMK A01 T01071096  RH  023%=      5-min Rain = 0
KBR1 242227Z 07008KT 11/M10 A3012 RMK A01 T01081097  RH  023%=      5-min Rain = 0
KBR1 242228Z 07008KT 11/M10 A3012 RMK A01 T01091095  RH  023%=      5-min Rain = 0
KBR1 242229Z 11009KT 11/M09 A3012 RMK A01 T01111094  RH  023%=      5-min Rain = 0
KBR1 242230Z 12012KT 11/M09 A3012 RMK A01 T01121093  RH  023%=      5-min Rain = 0
KBR1 242231Z 14010KT 11/M10 A3012 RMK A01 T01121095  RH  022%=      5-min Rain = 0
KBR1 242232Z 15010KT 11/M09 A3012 RMK A01 T01121094  RH  022%=      5-min Rain = 0
KBR1 242233Z 16009KT 11/M10 A3012 RMK A01 T01111096  RH  022%=      5-min Rain = 0
KBR1 242234Z 15009KT 11/M10 A3012 RMK A01 T01101096  RH  022%=      5-min Rain = 0
KBR1 242235Z 14008KT 11/M10 A3012 RMK A01 T01101096  RH  023%=      5-min Rain = 0
KBR1 242236Z 14011KT 11/M09 A3012 RMK A01 T01121094  RH  023%=      5-min Rain = 0
KBR1 242237Z 13011KT 11/M10 A3012 RMK A01 T01121095  RH  023%=      5-min Rain = 0
KBR1 242238Z 15011KT 11/M09 A3012 RMK A01 T01121094  RH  023%=      5-min Rain = 0
KBR1 242239Z 14010KT 11/M10 A3012 RMK A01 T01111096  RH  022%=      5-min Rain = 0
KBR1 242240Z 14008KT 11/M10 A3012 RMK A01 T01101096  RH  022%=      5-min Rain = 0
KBR1 242241Z 15009KT 11/M10 A3012 RMK A01 T01091096  RH  023%=      5-min Rain = 0
KBR1 242242Z 14008KT 11/M10 A3012 RMK A01 T01101095  RH  023%=      5-min Rain = 0
KBR1 242243Z 13007KT 11/M10 A3013 RMK A01 T01111095  RH  023%=      5-min Rain = 0
KBR1 242244Z 12008KT 11/M09 A3013 RMK A01 T01121093  RH  023%=      5-min Rain = 0
KBR1 242245Z 15005KT 11/M10 A3013 RMK A01 T01111097  RH  022%=      5-min Rain = 0
KBR1 242246Z 15003KT 11/M10 A3012 RMK A01 T01091098  RH  022%=      5-min Rain = 0
KBR1 242247Z 13006KT 11/M10 A3012 RMK A01 T01081098  RH  023%=      5-min Rain = 0
KBR1 242248Z 11007KT 11/M10 A3012 RMK A01 T01081096  RH  023%=      5-min Rain = 0
KBR1 242249Z 10008KT 11/M09 A3012 RMK A01 T01101094  RH  023%=      5-min Rain = 0
KBR1 242250Z 13011KT 11/M09 A3012 RMK A01 T01111094  RH  023%=      5-min Rain = 0
KBR1 242251Z 12009KT 11/M10 A3012 RMK A01 T01111095  RH  022%=      5-min Rain = 0
KBR1 242252Z 11007KT 11/M10 A3012 RMK A01 T01091098  RH  022%=      5-min Rain = 0
KBR1 242253Z 11007KT 11/M10 A3012 RMK A01 T01081097  RH  023%=      5-min Rain = 0
KBR1 242254Z 12006KT 11/M10 A3012 RMK A01 T01081096  RH  023%=      5-min Rain = 0
KBR1 242255Z 13006KT 11/M10 A3012 RMK A01 T01081097  RH  023%=      5-min Rain = 0
KBR1 242256Z 10008KT 11/M10 A3012 RMK A01 T01081096  RH  023%=      5-min Rain = 0
KBR1 242257Z 10007KT 11/M09 A3012 RMK A01 T01111093  RH  023%=      5-min Rain = 0
KBR1 242258Z 11008KT 11/M10 A3012 RMK A01 T01111096  RH  022%=      5-min Rain = 0
KBR1 242259Z 14007KT 11/M10 A3012 RMK A01 T01101095  RH  023%=      5-min Rain = 0
KBR1 242300Z 13007KT 11/M10 A3012 RMK A01 T01111096  RH  022%=      5-min Rain = 0
KBR1 242301Z 12005KT 11/M10 A3012 RMK A01 T01081099  RH  022%=      5-min Rain = 0
KBR1 242302Z 13007KT 11/M09 A3012 RMK A01 T01091094  RH  023%=      5-min Rain = 0
KBR1 242303Z 13005KT 11/M09 A3012 RMK A01 T01111094  RH  023%=      5-min Rain = 0
KBR1 242304Z 13006KT 11/M09 A3012 RMK A01 T01121093  RH  023%=      5-min Rain = 0
KBR1 242305Z 12005KT 11/M09 A3012 RMK A01 T01131093  RH  023%=      5-min Rain = 0
KBR1 242306Z 13006KT 11/M09 A3012 RMK A01 T01141093  RH  022%=      5-min Rain = 0
KBR1 242307Z 14005KT 11/M10 A3012 RMK A01 T01131096  RH  022%=      5-min Rain = 0
KBR1 242308Z 15007KT 11/M10 A3012 RMK A01 T01121097  RH  022%=      5-min Rain = 0
KBR1 242309Z 14006KT 11/M10 A3011 RMK A01 T01111098  RH  022%=      5-min Rain = 0
KBR1 242310Z 13008KT 11/M10 A3011 RMK A01 T01111096  RH  022%=      5-min Rain = 0
KBR1 242311Z 13009KT 11/M10 A3011 RMK A01 T01091098  RH  022%=      5-min Rain = 0
KBR1 242312Z 12007KT 11/M10 A3011 RMK A01 T01091098  RH  022%=      5-min Rain = 0
KBR1 242313Z 11010KT 11/M10 A3011 RMK A01 T01091097  RH  023%=      5-min Rain = 0
KBR1 242314Z 12009KT 11/M10 A3011 RMK A01 T01091096  RH  023%=      5-min Rain = 0
KBR1 242315Z 13008KT 11/M10 A3011 RMK A01 T01081098  RH  023%=      5-min Rain = 0
KBR1 242316Z 11008KT 11/M10 A3011 RMK A01 T01081098  RH  022%=      5-min Rain = 0
KBR1 242317Z 10007KT 11/M10 A3011 RMK A01 T01081097  RH  023%=      5-min Rain = 0
KBR1 242318Z 10008KT 11/M10 A3011 RMK A01 T01091096  RH  023%=      5-min Rain = 0
KBR1 242319Z 10007KT 11/M10 A3011 RMK A01 T01101097  RH  022%=      5-min Rain = 0
KBR1 242320Z 12008KT 11/M10 A3011 RMK A01 T01101096  RH  023%=      5-min Rain = 0
KBR1 242321Z 11007KT 11/M10 A3011 RMK A01 T01081100  RH  022%=      5-min Rain = 0
KBR1 242322Z 10009KT 11/M10 A3011 RMK A01 T01081098  RH  023%=      5-min Rain = 0
KBR1 242323Z 11010KT 11/M10 A3011 RMK A01 T01081096  RH  023%=      5-min Rain = 0
KBR1 242324Z 13009KT 11/M10 A3011 RMK A01 T01091097  RH  023%=      5-min Rain = 0
KBR1 242325Z 11008KT 11/M10 A3011 RMK A01 T01081097  RH  023%=      5-min Rain = 0
KBR1 242326Z 10007KT 11/M10 A3011 RMK A01 T01091096  RH  023%=      5-min Rain = 0
KBR1 242327Z 11008KT 11/M10 A3011 RMK A01 T01091096  RH  023%=      5-min Rain = 0
KBR1 242328Z 12007KT 11/M10 A3012 RMK A01 T01091098  RH  022%=      5-min Rain = 0
KBR1 242329Z 12007KT 11/M10 A3012 RMK A01 T01081098  RH  022%=      5-min Rain = 0
KBR1 242330Z 11007KT 11/M10 A3012 RMK A01 T01071099  RH  023%=      5-min Rain = 0
KBR1 242331Z 10006KT 11/M10 A3012 RMK A01 T01071099  RH  023%=      5-min Rain = 0
KBR1 242332Z 10005KT 11/M10 A3012 RMK A01 T01061099  RH  023%=      5-min Rain = 0
KBR1 242333Z 10005KT 11/M10 A3012 RMK A01 T01061099  RH  023%=      5-min Rain = 0
KBR1 242334Z 11006KT 11/M10 A3012 RMK A01 T01061098  RH  023%=      5-min Rain = 0
KBR1 242335Z 09008KT 11/M10 A3012 RMK A01 T01061098  RH  023%=      5-min Rain = 0
KBR1 242336Z 11012KT 11/M10 A3011 RMK A01 T01071097  RH  023%=      5-min Rain = 0
KBR1 242337Z 12011KT 11/M10 A3012 RMK A01 T01071098  RH  023%=      5-min Rain = 0
KBR1 242338Z 12009KT 11/M10 A3012 RMK A01 T01071098  RH  023%=      5-min Rain = 0
KBR1 242339Z 13007KT 11/M10 A3012 RMK A01 T01061099  RH  023%=      5-min Rain = 0
KBR1 242340Z 13007KT 11/M10 A3012 RMK A01 T01071098  RH  023%=      5-min Rain = 0
KBR1 242341Z 12007KT 11/M10 A3012 RMK A01 T01061099  RH  023%=      5-min Rain = 0
KBR1 242342Z 12006KT 11/M10 A3012 RMK A01 T01061098  RH  023%=      5-min Rain = 0
KBR1 242343Z 11010KT 11/M10 A3012 RMK A01 T01071097  RH  023%=      5-min Rain = 0
KBR1 242344Z 12007KT 11/M10 A3012 RMK A01 T01071098  RH  023%=      5-min Rain = 0
KBR1 242345Z 12008KT 11/M10 A3012 RMK A01 T01061098  RH  023%=      5-min Rain = 0
KBR1 242346Z 12009KT 11/M10 A3012 RMK A01 T01061098  RH  023%=      5-min Rain = 0
KBR1 242347Z 12008KT 11/M10 A3012 RMK A01 T01061098  RH  023%=      5-min Rain = 0
KBR1 242348Z 12008KT 11/M10 A3012 RMK A01 T01061097  RH  023%=      5-min Rain = 0
KBR1 242349Z 13008KT 11/M10 A3012 RMK A01 T01061098  RH  023%=      5-min Rain = 0
KBR1 242350Z 13008KT 11/M10 A3012 RMK A01 T01051098  RH  023%=      5-min Rain = 0
KBR1 242351Z 13007KT 11/M10 A3012 RMK A01 T01051098  RH  023%=      5-min Rain = 0
KBR1 242352Z 13007KT 11/M10 A3012 RMK A01 T01051098  RH  023%=      5-min Rain = 0
KBR1 242353Z 13006KT 11/M10 A3012 RMK A01 T01051097  RH  023%=      5-min Rain = 0
KBR1 242354Z 13009KT 11/M10 A3012 RMK A01 T01051098  RH  023%=      5-min Rain = 0
KBR1 242355Z 12009KT 10/M10 A3012 RMK A01 T01041100  RH  023%=      5-min Rain = 0
KBR1 242356Z 12007KT 10/M10 A3012 RMK A01 T01041099  RH  023%=      5-min Rain = 0
KBR1 242357Z 10006KT 10/M10 A3012 RMK A01 T01041096  RH  023%=      5-min Rain = 0
KBR1 242358Z 10008KT 10/M10 A3012 RMK A01 T01041097  RH  023%=      5-min Rain = 0
KBR1 242359Z 11008KT 10/M10 A3012 RMK A01 T01041097  RH  023%=      5-min Rain = 0
KBR1 250000Z 12009KT 10/M10 A3012 RMK A01 T01041097  RH  023%=      5-min Rain = 0
KBR1 250001Z 11010KT 10/M10 A3012 RMK A01 T01031097  RH  023%=      5-min Rain = 0
KBR1 250002Z 12009KT 10/M10 A3013 RMK A01 T01031097  RH  023%=      5-min Rain = 0
KBR1 250003Z 12009KT 10/M10 A3013 RMK A01 T01031096  RH  024%=      5-min Rain = 0
KBR1 250004Z 11009KT 10/M10 A3013 RMK A01 T01021096  RH  024%=      5-min Rain = 0
KBR1 250005Z 11009KT 10/M10 A3013 RMK A01 T01011097  RH  024%=      5-min Rain = 0
KBR1 250006Z 11008KT 10/M10 A3013 RMK A01 T01011097  RH  024%=      5-min Rain = 0
KBR1 250007Z 11008KT 10/M10 A3013 RMK A01 T01001096  RH  024%=      5-min Rain = 0
KBR1 250008Z 11008KT 10/M10 A3013 RMK A01 T00991097  RH  024%=      5-min Rain = 0
KBR1 250009Z 11007KT 10/M10 A3013 RMK A01 T00991097  RH  024%=      5-min Rain = 0
KBR1 250010Z 10007KT 10/M10 A3013 RMK A01 T00981097  RH  024%=      5-min Rain = 0
KBR1 250011Z 10006KT 10/M10 A3013 RMK A01 T00981096  RH  024%=      5-min Rain = 0
KBR1 250012Z 10007KT 10/M10 A3013 RMK A01 T00971096  RH  024%=      5-min Rain = 0
KBR1 250013Z 10007KT 10/M10 A3013 RMK A01 T00971096  RH  025%=      5-min Rain = 0
KBR1 250014Z 10009KT 10/M10 A3013 RMK A01 T00961096  RH  025%=      5-min Rain = 0
KBR1 250015Z 09008KT 10/M10 A3013 RMK A01 T00951097  RH  025%=      5-min Rain = 0
KBR1 250016Z 09007KT 09/M10 A3013 RMK A01 T00941097  RH  025%=      5-min Rain = 0
KBR1 250017Z 10008KT 09/M10 A3013 RMK A01 T00941096  RH  025%=      5-min Rain = 0
KBR1 250018Z 09008KT 09/M10 A3013 RMK A01 T00931097  RH  025%=      5-min Rain = 0
KBR1 250019Z 09007KT 09/M10 A3013 RMK A01 T00931097  RH  025%=      5-min Rain = 0
KBR1 250020Z 09007KT 09/M10 A3013 RMK A01 T00921097  RH  025%=      5-min Rain = 0
KBR1 250021Z 09008KT 09/M10 A3013 RMK A01 T00911097  RH  025%=      5-min Rain = 0
KBR1 250022Z 09007KT 09/M10 A3013 RMK A01 T00901097  RH  026%=      5-min Rain = 0
KBR1 250023Z 09008KT 09/M10 A3013 RMK A01 T00891096  RH  026%=      5-min Rain = 0
KBR1 250024Z 09008KT 09/M10 A3013 RMK A01 T00881096  RH  026%=      5-min Rain = 0
KBR1 250025Z 09008KT 09/M10 A3013 RMK A01 T00871097  RH  026%=      5-min Rain = 0
KBR1 250026Z 09008KT 09/M10 A3013 RMK A01 T00861097  RH  026%=      5-min Rain = 0
KBR1 250027Z 09007KT 09/M10 A3013 RMK A01 T00851097  RH  027%=      5-min Rain = 0
KBR1 250028Z 09007KT 08/M10 A3013 RMK A01 T00841097  RH  027%=      5-min Rain = 0
KBR1 250029Z 09008KT 08/M10 A3013 RMK A01 T00831096  RH  027%=      5-min Rain = 0
KBR1 250030Z 09008KT 08/M10 A3013 RMK A01 T00831096  RH  027%=      5-min Rain = 0
KBR1 250031Z 09008KT 08/M10 A3013 RMK A01 T00821096  RH  027%=      5-min Rain = 0
KBR1 250032Z 09008KT 08/M10 A3013 RMK A01 T00821096  RH  027%=      5-min Rain = 0
KBR1 250033Z 09009KT 08/M10 A3012 RMK A01 T00801096  RH  027%=      5-min Rain = 0
KBR1 250034Z 09009KT 08/M10 A3012 RMK A01 T00791096  RH  028%=      5-min Rain = 0
KBR1 250035Z 09008KT 08/M10 A3012 RMK A01 T00791096  RH  028%=      5-min Rain = 0
KBR1 250036Z 09008KT 08/M10 A3012 RMK A01 T00781096  RH  028%=      5-min Rain = 0
KBR1 250037Z 09008KT 08/M10 A3013 RMK A01 T00771096  RH  028%=      5-min Rain = 0
KBR1 250038Z 09008KT 08/M10 A3013 RMK A01 T00761096  RH  028%=      5-min Rain = 0
KBR1 250039Z 09007KT 08/M10 A3013 RMK A01 T00751095  RH  029%=      5-min Rain = 0
KBR1 250040Z 09007KT 07/M10 A3013 RMK A01 T00731095  RH  029%=      5-min Rain = 0
KBR1 250041Z 09007KT 07/M10 A3013 RMK A01 T00711095  RH  029%=      5-min Rain = 0
KBR1 250042Z 08007KT 07/M10 A3013 RMK A01 T00701095  RH  030%=      5-min Rain = 0
KBR1 250043Z 08008KT 07/M10 A3013 RMK A01 T00691095  RH  030%=      5-min Rain = 0
KBR1 250044Z 08008KT 07/M10 A3013 RMK A01 T00691095  RH  030%=      5-min Rain = 0
KBR1 250045Z 08008KT 07/M09 A3013 RMK A01 T00681094  RH  030%=      5-min Rain = 0
KBR1 250046Z 08008KT 07/M10 A3013 RMK A01 T00661095  RH  031%=      5-min Rain = 0
KBR1 250047Z 08008KT 07/M10 A3013 RMK A01 T00651095  RH  031%=      5-min Rain = 0
KBR1 250048Z 08008KT 06/M10 A3013 RMK A01 T00641095  RH  031%=      5-min Rain = 0
KBR1 250049Z 08009KT 06/M10 A3013 RMK A01 T00631095  RH  031%=      5-min Rain = 0
KBR1 250050Z 08009KT 06/M09 A3013 RMK A01 T00631094  RH  031%=      5-min Rain = 0
KBR1 250051Z 08009KT 06/M09 A3013 RMK A01 T00631094  RH  032%=      5-min Rain = 0
KBR1 250052Z 08008KT 06/M09 A3013 RMK A01 T00631094  RH  031%=      5-min Rain = 0
KBR1 250053Z 08009KT 06/M09 A3013 RMK A01 T00631094  RH  032%=      5-min Rain = 0
KBR1 250054Z 08009KT 06/M09 A3013 RMK A01 T00621094  RH  032%=      5-min Rain = 0
KBR1 250055Z 08009KT 06/M09 A3013 RMK A01 T00611094  RH  032%=      5-min Rain = 0
KBR1 250056Z 08008KT 06/M09 A3013 RMK A01 T00601094  RH  032%=      5-min Rain = 0
KBR1 250057Z 08008KT 06/M09 A3013 RMK A01 T00591094  RH  033%=      5-min Rain = 0
KBR1 250058Z 08008KT 06/M09 A3013 RMK A01 T00571094  RH  033%=      5-min Rain = 0
KBR1 250059Z 08008KT 06/M09 A3013 RMK A01 T00561094  RH  033%=      5-min Rain = 0
KBR1 250100Z 08008KT 05/M09 A3013 RMK A01 T00541093  RH  034%=      5-min Rain = 0
KBR1 250101Z 08008KT 05/M09 A3013 RMK A01 T00531094  RH  034%=      5-min Rain = 0
KBR1 250102Z 08008KT 05/M09 A3013 RMK A01 T00521093  RH  034%=      5-min Rain = 0
KBR1 250103Z 08008KT 05/M09 A3013 RMK A01 T00521093  RH  034%=      5-min Rain = 0
KBR1 250104Z 08009KT 05/M09 A3013 RMK A01 T00521093  RH  034%=      5-min Rain = 0
KBR1 250105Z 08008KT 05/M09 A3013 RMK A01 T00511092  RH  035%=      5-min Rain = 0
KBR1 250106Z 08008KT 05/M09 A3013 RMK A01 T00511092  RH  035%=      5-min Rain = 0
KBR1 250107Z 08009KT 05/M09 A3013 RMK A01 T00511092  RH  035%=      5-min Rain = 0
KBR1 250108Z 08009KT 05/M09 A3013 RMK A01 T00501092  RH  035%=      5-min Rain = 0
KBR1 250109Z 08009KT 05/M09 A3013 RMK A01 T00501092  RH  035%=      5-min Rain = 0
KBR1 250110Z 08009KT 05/M09 A3013 RMK A01 T00491092  RH  035%=      5-min Rain = 0
KBR1 250111Z 08009KT 05/M09 A3013 RMK A01 T00481092  RH  036%=      5-min Rain = 0
KBR1 250112Z 08009KT 05/M09 A3013 RMK A01 T00481092  RH  036%=      5-min Rain = 0
KBR1 250113Z 08009KT 05/M09 A3013 RMK A01 T00481091  RH  036%=      5-min Rain = 0
KBR1 250114Z 08009KT 05/M09 A3013 RMK A01 T00471091  RH  036%=      5-min Rain = 0
KBR1 250115Z 08009KT 05/M09 A3013 RMK A01 T00471092  RH  036%=      5-min Rain = 0
KBR1 250116Z 08009KT 05/M09 A3013 RMK A01 T00461092  RH  036%=      5-min Rain = 0
KBR1 250117Z 08009KT 05/M09 A3013 RMK A01 T00451092  RH  036%=      5-min Rain = 0
KBR1 250118Z 08009KT 05/M09 A3013 RMK A01 T00451092  RH  036%=      5-min Rain = 0
KBR1 250119Z 08009KT 05/M09 A3013 RMK A01 T00451092  RH  036%=      5-min Rain = 0
KBR1 250120Z 08009KT 05/M09 A3013 RMK A01 T00451092  RH  036%=      5-min Rain = 0
KBR1 250121Z 08009KT 05/M09 A3013 RMK A01 T00451091  RH  036%=      5-min Rain = 0
KBR1 250122Z 08009KT 05/M09 A3014 RMK A01 T00451092  RH  037%=      5-min Rain = 0
KBR1 250123Z 08009KT 05/M09 A3014 RMK A01 T00451091  RH  036%=      5-min Rain = 0
KBR1 250124Z 08009KT 05/M09 A3014 RMK A01 T00451092  RH  036%=      5-min Rain = 0
KBR1 250125Z 08009KT 05/M09 A3014 RMK A01 T00451091  RH  036%=      5-min Rain = 0
KBR1 250126Z 08009KT 05/M09 A3014 RMK A01 T00451092  RH  036%=      5-min Rain = 0
KBR1 250127Z 08009KT 04/M09 A3014 RMK A01 T00441092  RH  037%=      5-min Rain = 0
KBR1 250128Z 08009KT 04/M09 A3014 RMK A01 T00431092  RH  037%=      5-min Rain = 0
KBR1 250129Z 08009KT 04/M09 A3014 RMK A01 T00431092  RH  037%=      5-min Rain = 0
KBR1 250130Z 08008KT 04/M09 A3014 RMK A01 T00421092  RH  037%=      5-min Rain = 0
KBR1 250131Z 08008KT 04/M09 A3014 RMK A01 T00421091  RH  037%=      5-min Rain = 0
KBR1 250132Z 08008KT 04/M09 A3014 RMK A01 T00411091  RH  037%=      5-min Rain = 0
KBR1 250133Z 08008KT 04/M09 A3014 RMK A01 T00401092  RH  038%=      5-min Rain = 0
KBR1 250134Z 08008KT 04/M09 A3014 RMK A01 T00391092  RH  038%=      5-min Rain = 0
KBR1 250135Z 08008KT 04/M09 A3014 RMK A01 T00381092  RH  038%=      5-min Rain = 0
KBR1 250136Z 08009KT 04/M09 A3014 RMK A01 T00371092  RH  038%=      5-min Rain = 0
KBR1 250137Z 08009KT 04/M09 A3014 RMK A01 T00361092  RH  039%=      5-min Rain = 0
KBR1 250138Z 08009KT 04/M09 A3014 RMK A01 T00361092  RH  039%=      5-min Rain = 0
KBR1 250139Z 08009KT 04/M09 A3014 RMK A01 T00371091  RH  039%=      5-min Rain = 0
KBR1 250140Z 08009KT 04/M09 A3014 RMK A01 T00381091  RH  038%=      5-min Rain = 0
KBR1 250141Z 07009KT 04/M09 A3014 RMK A01 T00391091  RH  038%=      5-min Rain = 0
KBR1 250142Z 07009KT 04/M09 A3014 RMK A01 T00391091  RH  038%=      5-min Rain = 0
KBR1 250143Z 08009KT 04/M09 A3014 RMK A01 T00391092  RH  038%=      5-min Rain = 0
KBR1 250144Z 08009KT 04/M09 A3014 RMK A01 T00391092  RH  038%=      5-min Rain = 0
KBR1 250145Z 08009KT 04/M09 A3014 RMK A01 T00401092  RH  038%=      5-min Rain = 0
KBR1 250146Z 08009KT 04/M09 A3014 RMK A01 T00401092  RH  038%=      5-min Rain = 0
KBR1 250147Z 08009KT 04/M09 A3014 RMK A01 T00401092  RH  038%=      5-min Rain = 0
KBR1 250148Z 08009KT 04/M09 A3015 RMK A01 T00411092  RH  037%=      5-min Rain = 0
KBR1 250149Z 08009KT 04/M09 A3015 RMK A01 T00401092  RH  037%=      5-min Rain = 0
KBR1 250150Z 08009KT 04/M09 A3015 RMK A01 T00401092  RH  037%=      5-min Rain = 0
KBR1 250151Z 08009KT 04/M09 A3015 RMK A01 T00401092  RH  037%=      5-min Rain = 0
KBR1 250152Z 08009KT 04/M09 A3015 RMK A01 T00401093  RH  037%=      5-min Rain = 0
KBR1 250153Z 08009KT 04/M09 A3015 RMK A01 T00401093  RH  037%=      5-min Rain = 0
KBR1 250154Z 08009KT 04/M09 A3015 RMK A01 T00411093  RH  037%=      5-min Rain = 0
KBR1 250155Z 08009KT 04/M09 A3015 RMK A01 T00411093  RH  037%=      5-min Rain = 0
KBR1 250156Z 08009KT 04/M09 A3015 RMK A01 T00411093  RH  037%=      5-min Rain = 0
KBR1 250157Z 08009KT 04/M09 A3015 RMK A01 T00411093  RH  037%=      5-min Rain = 0
KBR1 250158Z 08009KT 04/M09 A3015 RMK A01 T00401093  RH  037%=      5-min Rain = 0
KBR1 250159Z 08008KT 04/M09 A3015 RMK A01 T00401093  RH  037%=      5-min Rain = 0
KBR1 250200Z 07008KT 04/M09 A3015 RMK A01 T00391093  RH  037%=      5-min Rain = 0
KBR1 250201Z 08008KT 04/M09 A3015 RMK A01 T00381093  RH  038%=      5-min Rain = 0
KBR1 250202Z 07009KT 04/M09 A3015 RMK A01 T00371093  RH  038%=      5-min Rain = 0
KBR1 250203Z 08008KT 04/M09 A3016 RMK A01 T00371093  RH  038%=      5-min Rain = 0
KBR1 250204Z 08009KT 04/M09 A3016 RMK A01 T00371093  RH  038%=      5-min Rain = 0
KBR1 250205Z 08009KT 04/M09 A3016 RMK A01 T00361093  RH  038%=      5-min Rain = 0
KBR1 250206Z 08009KT 04/M09 A3016 RMK A01 T00361093  RH  038%=      5-min Rain = 0
KBR1 250207Z 08008KT 04/M09 A3016 RMK A01 T00361094  RH  038%=      5-min Rain = 0
KBR1 250208Z 08009KT 04/M09 A3016 RMK A01 T00361094  RH  038%=      5-min Rain = 0
KBR1 250209Z 08009KT 04/M09 A3016 RMK A01 T00361094  RH  038%=      5-min Rain = 0
KBR1 250210Z 08008KT 04/M09 A3016 RMK A01 T00361094  RH  038%=      5-min Rain = 0
KBR1 250211Z 07009KT 04/M09 A3016 RMK A01 T00361093  RH  038%=      5-min Rain = 0
KBR1 250212Z 07009KT 04/M09 A3016 RMK A01 T00351093  RH  038%=      5-min Rain = 0
KBR1 250213Z 07009KT 04/M09 A3016 RMK A01 T00351094  RH  039%=      5-min Rain = 0
KBR1 250214Z 07009KT 03/M09 A3016 RMK A01 T00341094  RH  039%=      5-min Rain = 0
KBR1 250215Z 08009KT 03/M09 A3016 RMK A01 T00331094  RH  039%=      5-min Rain = 0
KBR1 250216Z 07009KT 03/M09 A3016 RMK A01 T00331093  RH  039%=      5-min Rain = 0
KBR1 250217Z 08009KT 03/M09 A3016 RMK A01 T00331094  RH  039%=      5-min Rain = 0
KBR1 250218Z 07009KT 03/M09 A3016 RMK A01 T00331094  RH  039%=      5-min Rain = 0
KBR1 250219Z 07009KT 03/M09 A3016 RMK A01 T00341094  RH  039%=      5-min Rain = 0
KBR1 250220Z 07009KT 03/M09 A3016 RMK A01 T00341094  RH  039%=      5-min Rain = 0
KBR1 250221Z 07009KT 04/M09 A3016 RMK A01 T00351094  RH  038%=      5-min Rain = 0
KBR1 250222Z 08009KT 03/M09 A3016 RMK A01 T00341094  RH  038%=      5-min Rain = 0
KBR1 250223Z 08009KT 04/M09 A3016 RMK A01 T00351094  RH  038%=      5-min Rain = 0
KBR1 250224Z 08009KT 04/M09 A3016 RMK A01 T00351094  RH  038%=      5-min Rain = 0
KBR1 250225Z 08009KT 04/M09 A3016 RMK A01 T00351094  RH  038%=      5-min Rain = 0
KBR1 250226Z 08009KT 03/M10 A3016 RMK A01 T00341095  RH  038%=      5-min Rain = 0
KBR1 250227Z 08009KT 03/M09 A3016 RMK A01 T00341094  RH  038%=      5-min Rain = 0
KBR1 250228Z 08009KT 03/M10 A3016 RMK A01 T00341095  RH  038%=      5-min Rain = 0
KBR1 250229Z 08009KT 03/M10 A3016 RMK A01 T00341095  RH  038%=      5-min Rain = 0
KBR1 250230Z 07009KT 03/M10 A3016 RMK A01 T00341095  RH  038%=      5-min Rain = 0
KBR1 250231Z 07009KT 03/M10 A3016 RMK A01 T00341095  RH  038%=      5-min Rain = 0
KBR1 250232Z 07009KT 03/M10 A3016 RMK A01 T00341095  RH  038%=      5-min Rain = 0
KBR1 250233Z 07009KT 03/M10 A3016 RMK A01 T00331095  RH  039%=      5-min Rain = 0
KBR1 250234Z 07009KT 03/M09 A3016 RMK A01 T00331094  RH  039%=      5-min Rain = 0
KBR1 250235Z 07009KT 03/M10 A3016 RMK A01 T00321095  RH  039%=      5-min Rain = 0
KBR1 250236Z 07009KT 03/M09 A3016 RMK A01 T00331094  RH  039%=      5-min Rain = 0
KBR1 250237Z 07009KT 03/M09 A3016 RMK A01 T00331094  RH  039%=      5-min Rain = 0
KBR1 250238Z 07009KT 03/M10 A3016 RMK A01 T00321095  RH  039%=      5-min Rain = 0
KBR1 250239Z 07009KT 03/M10 A3016 RMK A01 T00321095  RH  039%=      5-min Rain = 0
KBR1 250240Z 07009KT 03/M10 A3016 RMK A01 T00321095  RH  039%=      5-min Rain = 0
KBR1 250241Z 07009KT 03/M09 A3016 RMK A01 T00331094  RH  039%=      5-min Rain = 0
KBR1 250242Z 07009KT 03/M10 A3016 RMK A01 T00321095  RH  039%=      5-min Rain = 0
KBR1 250243Z 07009KT 03/M10 A3016 RMK A01 T00321095  RH  039%=      5-min Rain = 0
KBR1 250244Z 07009KT 03/M09 A3016 RMK A01 T00321094  RH  039%=      5-min Rain = 0
KBR1 250245Z 06009KT 03/M09 A3016 RMK A01 T00321094  RH  039%=      5-min Rain = 0
KBR1 250246Z 06009KT 03/M09 A3016 RMK A01 T00311094  RH  039%=      5-min Rain = 0
KBR1 250247Z 06009KT 03/M09 A3016 RMK A01 T00311094  RH  039%=      5-min Rain = 0
KBR1 250248Z 06009KT 03/M09 A3016 RMK A01 T00301094  RH  040%=      5-min Rain = 0
KBR1 250249Z 06009KT 03/M09 A3016 RMK A01 T00291094  RH  040%=      5-min Rain = 0
KBR1 250250Z 06008KT 03/M09 A3016 RMK A01 T00291094  RH  040%=      5-min Rain = 0
KBR1 250251Z 06009KT 03/M09 A3016 RMK A01 T00281094  RH  040%=      5-min Rain = 0
KBR1 250252Z 05009KT 03/M10 A3016 RMK A01 T00251095  RH  041%=      5-min Rain = 0
KBR1 250253Z 06009KT 02/M10 A3016 RMK A01 T00231095  RH  041%=      5-min Rain = 0
KBR1 250254Z 06009KT 02/M10 A3016 RMK A01 T00211095  RH  042%=      5-min Rain = 0
KBR1 250255Z 06009KT 02/M10 A3016 RMK A01 T00191095  RH  042%=      5-min Rain = 0
KBR1 250256Z 06009KT 02/M10 A3016 RMK A01 T00181095  RH  043%=      5-min Rain = 0
KBR1 250257Z 06009KT 02/M10 A3016 RMK A01 T00181095  RH  043%=      5-min Rain = 0
KBR1 250258Z 06009KT 02/M10 A3016 RMK A01 T00181095  RH  043%=      5-min Rain = 0
KBR1 250259Z 06008KT 02/M10 A3016 RMK A01 T00181095  RH  043%=      5-min Rain = 0
KBR1 250300Z 06009KT 02/M10 A3016 RMK A01 T00171096  RH  043%=      5-min Rain = 0
KBR1 250301Z 06009KT 02/M10 A3016 RMK A01 T00161096  RH  043%=      5-min Rain = 0
KBR1 250302Z 06009KT 02/M10 A3016 RMK A01 T00161095  RH  043%=      5-min Rain = 0
KBR1 250303Z 06009KT 02/M10 A3017 RMK A01 T00151095  RH  044%=      5-min Rain = 0
KBR1 250304Z 06009KT 02/M10 A3017 RMK A01 T00151095  RH  044%=      5-min Rain = 0
KBR1 250305Z 06009KT 02/M10 A3017 RMK A01 T00151095  RH  044%=      5-min Rain = 0
KBR1 250306Z 06009KT 02/M10 A3017 RMK A01 T00151095  RH  044%=      5-min Rain = 0
KBR1 250307Z 06009KT 02/M10 A3017 RMK A01 T00151096  RH  044%=      5-min Rain = 0
KBR1 250308Z 06009KT 02/M10 A3017 RMK A01 T00151096  RH  044%=      5-min Rain = 0
KBR1 250309Z 06009KT 02/M10 A3017 RMK A01 T00151095  RH  044%=      5-min Rain = 0
KBR1 250310Z 06009KT 01/M10 A3017 RMK A01 T00141095  RH  044%=      5-min Rain = 0
KBR1 250311Z 05009KT 01/M10 A3017 RMK A01 T00141095  RH  044%=      5-min Rain = 0
KBR1 250312Z 05009KT 01/M10 A3017 RMK A01 T00141095  RH  044%=      5-min Rain = 0
KBR1 250313Z 06009KT 01/M10 A3017 RMK A01 T00141095  RH  044%=      5-min Rain = 0
KBR1 250314Z 06009KT 01/M10 A3017 RMK A01 T00141095  RH  044%=      5-min Rain = 0
KBR1 250315Z 06010KT 01/M10 A3017 RMK A01 T00141095  RH  044%=      5-min Rain = 0
KBR1 250316Z 05009KT 01/M10 A3017 RMK A01 T00141095  RH  044%=      5-min Rain = 0
KBR1 250317Z 06009KT 01/M10 A3017 RMK A01 T00141095  RH  044%=      5-min Rain = 0
KBR1 250318Z 06009KT 01/M10 A3017 RMK A01 T00131095  RH  044%=      5-min Rain = 0
KBR1 250319Z 06009KT 01/M10 A3017 RMK A01 T00131095  RH  044%=      5-min Rain = 0
KBR1 250320Z 06009KT 01/M10 A3017 RMK A01 T00131095  RH  044%=      5-min Rain = 0
KBR1 250321Z 06009KT 01/M10 A3017 RMK A01 T00131096  RH  044%=      5-min Rain = 0
KBR1 250322Z 06008KT 01/M10 A3018 RMK A01 T00131096  RH  044%=      5-min Rain = 0
KBR1 250323Z 07008KT 01/M10 A3018 RMK A01 T00141095  RH  044%=      5-min Rain = 0
KBR1 250324Z 07008KT 01/M10 A3018 RMK A01 T00141095  RH  044%=      5-min Rain = 0
KBR1 250325Z 07009KT 02/M10 A3018 RMK A01 T00151095  RH  044%=      5-min Rain = 0
KBR1 250326Z 07009KT 02/M10 A3018 RMK A01 T00151095  RH  044%=      5-min Rain = 0
KBR1 250327Z 07008KT 02/M10 A3018 RMK A01 T00151096  RH  044%=      5-min Rain = 0
KBR1 250328Z 07008KT 02/M10 A3018 RMK A01 T00151096  RH  044%=      5-min Rain = 0
KBR1 250329Z 07008KT 02/M10 A3018 RMK A01 T00151096  RH  044%=      5-min Rain = 0
KBR1 250330Z 07008KT 02/M10 A3018 RMK A01 T00151096  RH  044%=      5-min Rain = 0
KBR1 250331Z 07009KT 02/M10 A3018 RMK A01 T00151095  RH  044%=      5-min Rain = 0
KBR1 250332Z 07009KT 02/M10 A3018 RMK A01 T00151096  RH  044%=      5-min Rain = 0
KBR1 250333Z 07009KT 02/M10 A3018 RMK A01 T00151095  RH  044%=      5-min Rain = 0
KBR1 250334Z 07009KT 02/M10 A3018 RMK A01 T00161095  RH  043%=      5-min Rain = 0
KBR1 250335Z 07009KT 02/M10 A3018 RMK A01 T00171095  RH  043%=      5-min Rain = 0
KBR1 250336Z 07009KT 02/M10 A3018 RMK A01 T00181095  RH  043%=      5-min Rain = 0
KBR1 250337Z 07010KT 02/M10 A3018 RMK A01 T00181095  RH  043%=      5-min Rain = 0
KBR1 250338Z 07010KT 02/M10 A3018 RMK A01 T00191096  RH  042%=      5-min Rain = 0
KBR1 250339Z 07009KT 02/M10 A3018 RMK A01 T00191096  RH  042%=      5-min Rain = 0
KBR1 250340Z 07009KT 02/M10 A3018 RMK A01 T00191096  RH  042%=      5-min Rain = 0
KBR1 250341Z 08009KT 02/M10 A3018 RMK A01 T00201096  RH  042%=      5-min Rain = 0
KBR1 250342Z 08009KT 02/M10 A3018 RMK A01 T00201097  RH  042%=      5-min Rain = 0
KBR1 250343Z 08009KT 02/M10 A3018 RMK A01 T00201097  RH  042%=      5-min Rain = 0
KBR1 250344Z 08009KT 02/M10 A3018 RMK A01 T00201097  RH  042%=      5-min Rain = 0
KBR1 250345Z 08009KT 02/M10 A3018 RMK A01 T00191097  RH  042%=      5-min Rain = 0
KBR1 250346Z 07009KT 02/M10 A3018 RMK A01 T00191097  RH  042%=      5-min Rain = 0
KBR1 250347Z 07009KT 02/M10 A3018 RMK A01 T00191098  RH  042%=      5-min Rain = 0
KBR1 250348Z 07009KT 02/M10 A3018 RMK A01 T00191098  RH  042%=      5-min Rain = 0
KBR1 250349Z 07009KT 02/M10 A3018 RMK A01 T00191097  RH  042%=      5-min Rain = 0
KBR1 250350Z 07009KT 02/M10 A3018 RMK A01 T00191098  RH  042%=      5-min Rain = 0
KBR1 250351Z 07009KT 02/M10 A3018 RMK A01 T00181098  RH  042%=      5-min Rain = 0
KBR1 250352Z 07009KT 02/M10 A3018 RMK A01 T00181098  RH  042%=      5-min Rain = 0
KBR1 250353Z 07009KT 02/M10 A3018 RMK A01 T00181098  RH  042%=      5-min Rain = 0
KBR1 250354Z 07009KT 02/M10 A3018 RMK A01 T00181098  RH  042%=      5-min Rain = 0
KBR1 250355Z 07009KT 02/M10 A3018 RMK A01 T00181099  RH  042%=      5-min Rain = 0
KBR1 250356Z 07009KT 02/M10 A3018 RMK A01 T00181099  RH  042%=      5-min Rain = 0
KBR1 250357Z 07009KT 02/M10 A3018 RMK A01 T00181099  RH  042%=      5-min Rain = 0
KBR1 250358Z 07009KT 02/M10 A3018 RMK A01 T00181098  RH  042%=      5-min Rain = 0
KBR1 250359Z 07010KT 02/M10 A3018 RMK A01 T00181098  RH  042%=      5-min Rain = 0
KBR1 250400Z 07010KT 02/M10 A3018 RMK A01 T00181099  RH  042%=      5-min Rain = 0
KBR1 250401Z 07009KT 02/M10 A3018 RMK A01 T00181099  RH  042%=      5-min Rain = 0
KBR1 250402Z 07010KT 02/M10 A3018 RMK A01 T00181099  RH  041%=      5-min Rain = 0
KBR1 250403Z 08010KT 02/M10 A3018 RMK A01 T00191099  RH  041%=      5-min Rain = 0
KBR1 250404Z 08010KT 02/M10 A3018 RMK A01 T00191100  RH  041%=      5-min Rain = 0
KBR1 250405Z 08010KT 02/M10 A3018 RMK A01 T00191099  RH  041%=      5-min Rain = 0
KBR1 250406Z 07010KT 02/M10 A3018 RMK A01 T00191099  RH  041%=      5-min Rain = 0
KBR1 250407Z 07010KT 02/M10 A3018 RMK A01 T00181099  RH  041%=      5-min Rain = 0
KBR1 250408Z 07010KT 02/M10 A3018 RMK A01 T00181099  RH  041%=      5-min Rain = 0
KBR1 250409Z 08010KT 02/M10 A3018 RMK A01 T00181099  RH  041%=      5-min Rain = 0
KBR1 250410Z 07009KT 02/M10 A3018 RMK A01 T00181100  RH  041%=      5-min Rain = 0
KBR1 250411Z 07010KT 02/M10 A3018 RMK A01 T00181100  RH  041%=      5-min Rain = 0
KBR1 250412Z 08010KT 02/M10 A3018 RMK A01 T00181100  RH  041%=      5-min Rain = 0
KBR1 250413Z 07010KT 02/M10 A3018 RMK A01 T00181099  RH  041%=      5-min Rain = 0
KBR1 250414Z 08010KT 02/M10 A3018 RMK A01 T00181100  RH  041%=      5-min Rain = 0
KBR1 250415Z 08010KT 02/M10 A3018 RMK A01 T00181099  RH  042%=      5-min Rain = 0
KBR1 250416Z 07010KT 02/M10 A3018 RMK A01 T00171099  RH  042%=      5-min Rain = 0
KBR1 250417Z 07010KT 02/M10 A3018 RMK A01 T00181099  RH  042%=      5-min Rain = 0
KBR1 250418Z 08010KT 02/M10 A3018 RMK A01 T00171100  RH  041%=      5-min Rain = 0
KBR1 250419Z 08010KT 02/M10 A3018 RMK A01 T00171100  RH  041%=      5-min Rain = 0
KBR1 250420Z 08010KT 02/M10 A3018 RMK A01 T00181100  RH  041%=      5-min Rain = 0
KBR1 250421Z 08010KT 02/M10 A3018 RMK A01 T00181100  RH  041%=      5-min Rain = 0
KBR1 250422Z 08010KT 02/M10 A3018 RMK A01 T00191100  RH  041%=      5-min Rain = 0
KBR1 250423Z 08010KT 02/M10 A3018 RMK A01 T00201100  RH  041%=      5-min Rain = 0
KBR1 250424Z 08010KT 02/M10 A3018 RMK A01 T00201100  RH  041%=      5-min Rain = 0
KBR1 250425Z 08011KT 02/M10 A3018 RMK A01 T00201100  RH  040%=      5-min Rain = 0
KBR1 250426Z 08010KT 02/M10 A3018 RMK A01 T00211100  RH  040%=      5-min Rain = 0
KBR1 250427Z 09010KT 02/M10 A3018 RMK A01 T00211101  RH  040%=      5-min Rain = 0
KBR1 250428Z 08010KT 02/M10 A3018 RMK A01 T00211100  RH  040%=      5-min Rain = 0
KBR1 250429Z 09010KT 02/M10 A3018 RMK A01 T00211101  RH  040%=      5-min Rain = 0
KBR1 250430Z 08010KT 02/M10 A3018 RMK A01 T00221100  RH  040%=      5-min Rain = 0
KBR1 250431Z 08011KT 02/M10 A3018 RMK A01 T00221100  RH  040%=      5-min Rain = 0
KBR1 250432Z 08010KT 02/M10 A3018 RMK A01 T00231100  RH  040%=      5-min Rain = 0
KBR1 250433Z 08010KT 02/M10 A3018 RMK A01 T00221101  RH  040%=      5-min Rain = 0
KBR1 250434Z 08011KT 02/M10 A3018 RMK A01 T00231100  RH  040%=      5-min Rain = 0
KBR1 250435Z 08011KT 02/M10 A3018 RMK A01 T00231101  RH  040%=      5-min Rain = 0
KBR1 250436Z 08010KT 02/M10 A3018 RMK A01 T00231101  RH  039%=      5-min Rain = 0
KBR1 250437Z 08011KT 02/M10 A3018 RMK A01 T00241101  RH  039%=      5-min Rain = 0
KBR1 250438Z 08011KT 02/M10 A3018 RMK A01 T00241101  RH  039%=      5-min Rain = 0
KBR1 250439Z 08011KT 02/M10 A3018 RMK A01 T00241101  RH  039%=      5-min Rain = 0
KBR1 250440Z 08010KT 02/M10 A3018 RMK A01 T00241102  RH  039%=      5-min Rain = 0
KBR1 250441Z 08011KT 02/M10 A3018 RMK A01 T00231101  RH  039%=      5-min Rain = 0
KBR1 250442Z 08011KT 02/M10 A3018 RMK A01 T00231101  RH  039%=      5-min Rain = 0
KBR1 250443Z 08010KT 02/M10 A3018 RMK A01 T00231102  RH  039%=      5-min Rain = 0
KBR1 250444Z 08010KT 02/M10 A3018 RMK A01 T00221102  RH  039%=      5-min Rain = 0
KBR1 250445Z 08010KT 02/M10 A3018 RMK A01 T00221102  RH  040%=      5-min Rain = 0
KBR1 250446Z 08010KT 02/M10 A3018 RMK A01 T00221102  RH  040%=      5-min Rain = 0
KBR1 250447Z 08010KT 02/M10 A3018 RMK A01 T00211101  RH  040%=      5-min Rain = 0
KBR1 250448Z 08010KT 02/M10 A3018 RMK A01 T00211102  RH  040%=      5-min Rain = 0
KBR1 250449Z 08009KT 02/M10 A3018 RMK A01 T00201102  RH  040%=      5-min Rain = 0
KBR1 250450Z 08009KT 02/M10 A3018 RMK A01 T00191102  RH  040%=      5-min Rain = 0
KBR1 250451Z 08009KT 02/M10 A3018 RMK A01 T00191102  RH  040%=      5-min Rain = 0
KBR1 250452Z 08009KT 02/M10 A3018 RMK A01 T00191102  RH  040%=      5-min Rain = 0
KBR1 250453Z 08009KT 02/M10 A3018 RMK A01 T00191101  RH  041%=      5-min Rain = 0
KBR1 250454Z 08009KT 02/M10 A3018 RMK A01 T00181102  RH  041%=      5-min Rain = 0
KBR1 250455Z 08009KT 02/M10 A3018 RMK A01 T00181101  RH  041%=      5-min Rain = 0
KBR1 250456Z 08009KT 02/M10 A3018 RMK A01 T00181101  RH  041%=      5-min Rain = 0
KBR1 250457Z 08009KT 02/M10 A3018 RMK A01 T00181101  RH  041%=      5-min Rain = 0
KBR1 250458Z 08009KT 02/M10 A3018 RMK A01 T00171101  RH  041%=      5-min Rain = 0
KBR1 250459Z 08009KT 02/M10 A3018 RMK A01 T00161102  RH  041%=      5-min Rain = 0
KBR1 250500Z 08009KT 02/M10 A3018 RMK A01 T00161101  RH  041%=      5-min Rain = 0
KBR1 250501Z 08009KT 02/M10 A3018 RMK A01 T00161101  RH  041%=      5-min Rain = 0
KBR1 250502Z 08009KT 02/M10 A3018 RMK A01 T00161101  RH  042%=      5-min Rain = 0
KBR1 250503Z 08009KT 02/M10 A3018 RMK A01 T00151101  RH  042%=      5-min Rain = 0
KBR1 250504Z 08008KT 02/M10 A3018 RMK A01 T00151101  RH  042%=      5-min Rain = 0
KBR1 250505Z 08009KT 01/M10 A3018 RMK A01 T00141101  RH  042%=      5-min Rain = 0
KBR1 250506Z 08008KT 01/M10 A3018 RMK A01 T00131101  RH  042%=      5-min Rain = 0
KBR1 250507Z 08007KT 01/M10 A3018 RMK A01 T00131101  RH  042%=      5-min Rain = 0
KBR1 250508Z 08008KT 01/M10 A3018 RMK A01 T00121101  RH  043%=      5-min Rain = 0
KBR1 250509Z 08008KT 01/M10 A3018 RMK A01 T00121101  RH  043%=      5-min Rain = 0
KBR1 250510Z 08008KT 01/M10 A3018 RMK A01 T00111101  RH  043%=      5-min Rain = 0
KBR1 250511Z 08008KT 01/M10 A3018 RMK A01 T00101101  RH  043%=      5-min Rain = 0
KBR1 250512Z 07008KT 01/M10 A3018 RMK A01 T00091101  RH  043%=      5-min Rain = 0
KBR1 250513Z 07008KT 01/M10 A3018 RMK A01 T00091101  RH  044%=      5-min Rain = 0
KBR1 250514Z 07008KT 01/M10 A3018 RMK A01 T00091101  RH  044%=      5-min Rain = 0
KBR1 250515Z 08008KT 01/M10 A3018 RMK A01 T00081101  RH  044%=      5-min Rain = 0
KBR1 250516Z 07008KT 01/M10 A3018 RMK A01 T00081100  RH  044%=      5-min Rain = 0
KBR1 250517Z 07007KT 01/M10 A3018 RMK A01 T00071101  RH  044%=      5-min Rain = 0
KBR1 250518Z 07007KT 01/M10 A3018 RMK A01 T00071101  RH  044%=      5-min Rain = 0
KBR1 250519Z 07007KT 01/M10 A3018 RMK A01 T00061101  RH  045%=      5-min Rain = 0
KBR1 250520Z 07007KT 01/M10 A3018 RMK A01 T00061101  RH  045%=      5-min Rain = 0
KBR1 250521Z 07008KT 01/M10 A3018 RMK A01 T00051101  RH  045%=      5-min Rain = 0
KBR1 250522Z 07008KT 01/M10 A3018 RMK A01 T00051101  RH  045%=      5-min Rain = 0
KBR1 250523Z 07008KT 01/M10 A3018 RMK A01 T00051101  RH  045%=      5-min Rain = 0
KBR1 250524Z 07007KT 01/M10 A3018 RMK A01 T00051100  RH  045%=      5-min Rain = 0
KBR1 250525Z 07007KT 01/M10 A3018 RMK A01 T00051100  RH  045%=      5-min Rain = 0
KBR1 250526Z 08008KT 01/M10 A3018 RMK A01 T00051100  RH  045%=      5-min Rain = 0
KBR1 250527Z 07007KT 01/M10 A3018 RMK A01 T00051100  RH  045%=      5-min Rain = 0
KBR1 250528Z 07007KT 01/M10 A3018 RMK A01 T00051100  RH  045%=      5-min Rain = 0
KBR1 250529Z 07007KT 01/M10 A3018 RMK A01 T00051100  RH  045%=      5-min Rain = 0
KBR1 250530Z 07007KT 00/M10 A3018 RMK A01 T00041100  RH  045%=      5-min Rain = 0
KBR1 250531Z 07007KT 00/M10 A3018 RMK A01 T00041100  RH  046%=      5-min Rain = 0
KBR1 250532Z 07006KT 00/M10 A3018 RMK A01 T00041100  RH  046%=      5-min Rain = 0
KBR1 250533Z 07007KT 00/M10 A3018 RMK A01 T00041100  RH  046%=      5-min Rain = 0
KBR1 250534Z 07006KT 00/M10 A3019 RMK A01 T00031100  RH  046%=      5-min Rain = 0
KBR1 250535Z 07006KT 00/M10 A3019 RMK A01 T00021100  RH  046%=      5-min Rain = 0
KBR1 250536Z 07006KT 00/M10 A3019 RMK A01 T00011100  RH  046%=      5-min Rain = 0
KBR1 250537Z 07006KT 00/10 A3019 RMK A01 T00000-100  RH  047%=      5-min Rain = 0
KBR1 250538Z 07006KT M00/M10 A3019 RMK A01 T10011100  RH  047%=      5-min Rain = 0
KBR1 250539Z 07006KT M00/M10 A3019 RMK A01 T10011100  RH  047%=      5-min Rain = 0
KBR1 250540Z 07006KT M00/M10 A3018 RMK A01 T10021100  RH  048%=      5-min Rain = 0
KBR1 250541Z 07006KT M00/M10 A3019 RMK A01 T10031100  RH  048%=      5-min Rain = 0
KBR1 250542Z 07006KT M00/M10 A3019 RMK A01 T10031100  RH  048%=      5-min Rain = 0
KBR1 250543Z 07006KT M00/M10 A3019 RMK A01 T10041100  RH  048%=      5-min Rain = 0
KBR1 250544Z 07006KT M00/M10 A3019 RMK A01 T10041100  RH  048%=      5-min Rain = 0
KBR1 250545Z 07005KT M00/M10 A3019 RMK A01 T10041100  RH  048%=      5-min Rain = 0
KBR1 250546Z 07006KT M00/M10 A3019 RMK A01 T10041100  RH  048%=      5-min Rain = 0
KBR1 250547Z 07006KT M01/M10 A3019 RMK A01 T10051100  RH  049%=      5-min Rain = 0
KBR1 250548Z 07006KT M01/M10 A3019 RMK A01 T10051100  RH  049%=      5-min Rain = 0
KBR1 250549Z 07006KT M01/M10 A3019 RMK A01 T10061100  RH  049%=      5-min Rain = 0
KBR1 250550Z 07006KT M01/M10 A3019 RMK A01 T10061100  RH  049%=      5-min Rain = 0
KBR1 250551Z 07006KT M01/M10 A3019 RMK A01 T10071101  RH  049%=      5-min Rain = 0
KBR1 250552Z 07006KT M01/M10 A3019 RMK A01 T10071101  RH  049%=      5-min Rain = 0
KBR1 250553Z 07006KT M01/M10 A3019 RMK A01 T10081101  RH  049%=      5-min Rain = 0
KBR1 250554Z 07006KT M01/M10 A3019 RMK A01 T10081101  RH  049%=      5-min Rain = 0
KBR1 250555Z 07006KT M01/M10 A3019 RMK A01 T10081101  RH  050%=      5-min Rain = 0
KBR1 250556Z 07006KT M01/M10 A3019 RMK A01 T10081100  RH  050%=      5-min Rain = 0
KBR1 250557Z 07006KT M01/M10 A3019 RMK A01 T10081100  RH  050%=      5-min Rain = 0
KBR1 250558Z 07006KT M01/M10 A3019 RMK A01 T10081100  RH  050%=      5-min Rain = 0
KBR1 250559Z 07006KT M01/M10 A3019 RMK A01 T10081100  RH  050%=      5-min Rain = 0

Page generated in 0.1352 seconds.